﻿<?xml version="1.0" encoding="UTF-8" standalone="no" ?>
<gpx xmlns="http://www.topografix.com/GPX/1/1" creator="CompeGPS" version="1.1" xmlns:xsi="http://www.w3.org/2001/XMLSchema-instance" xsi:schemaLocation="http://www.topografix.com/GPX/1/1 http://www.topografix.com/GPX/1/1/gpx.xsd http://www.garmin.com/xmlschemas/GpxExtensions/v3 http://www.garmin.com/xmlschemas/GpxExtensionsv3.xsd http://www.garmin.com/xmlschemas/TrackPointExtension/v1 http://www.garmin.com/xmlschemas/TrackPointExtensionv1.xsd" xmlns:gpxtpx="http://www.garmin.com/xmlschemas/TrackPointExtension/v1">
  <metadata>
    <link href="http://www.compegps.com">
      <text>CompeGPS TEAM, SL</text>
    </link>
    <time>2012-12-26T17:07:53Z</time>
    <bounds maxlat="42.905620" maxlon="-0.690805" minlat="42.897798" minlon="-0.733190"/>
  </metadata>
<wpt lat="42.905475" lon="-0.690805">
<ele>1171</ele>
<name>Pont Lamary</name>
</wpt>
<wpt lat="42.897949" lon="-0.716662">
<ele>1565</ele>
<name>Cabane d Ansabere</name>
</wpt>
<wpt lat="42.898394" lon="-0.732765">
<ele>2082</ele>
<name>Col de Petrageme</name>
</wpt>
<wpt lat="42.903005" lon="-0.732633">
<ele>2360</ele>
<name>Pic d Ansabere</name>
</wpt>
  <trk>
    <name>pic d ansabere</name>
    <trkseg>
      <trkpt lat="42.905475" lon="-0.690805">
        <ele>1100.4</ele>
        <time>2012-12-22T06:18:01Z</time>
        <name>Pont Lamary</name>
      </trkpt>
      <trkpt lat="42.905586" lon="-0.690920">
        <ele>1171.5</ele>
        <time>2012-12-22T06:22:20Z</time>
      </trkpt>
      <trkpt lat="42.905577" lon="-0.691234">
        <ele>1169.6</ele>
        <time>2012-12-22T06:22:43Z</time>
      </trkpt>
      <trkpt lat="42.905483" lon="-0.691335">
        <ele>1170.1</ele>
        <time>2012-12-22T06:22:55Z</time>
      </trkpt>
      <trkpt lat="42.905391" lon="-0.691408">
        <ele>1172.0</ele>
        <time>2012-12-22T06:23:06Z</time>
      </trkpt>
      <trkpt lat="42.905371" lon="-0.691545">
        <ele>1172.9</ele>
        <time>2012-12-22T06:23:17Z</time>
      </trkpt>
      <trkpt lat="42.905261" lon="-0.691684">
        <ele>1175.3</ele>
        <time>2012-12-22T06:23:31Z</time>
      </trkpt>
      <trkpt lat="42.905178" lon="-0.691852">
        <ele>1176.3</ele>
        <time>2012-12-22T06:23:44Z</time>
      </trkpt>
      <trkpt lat="42.905164" lon="-0.692047">
        <ele>1176.8</ele>
        <time>2012-12-22T06:23:55Z</time>
      </trkpt>
      <trkpt lat="42.905109" lon="-0.692187">
        <ele>1178.7</ele>
        <time>2012-12-22T06:24:05Z</time>
      </trkpt>
      <trkpt lat="42.905047" lon="-0.692307">
        <ele>1180.2</ele>
        <time>2012-12-22T06:24:15Z</time>
      </trkpt>
      <trkpt lat="42.904979" lon="-0.692477">
        <ele>1181.1</ele>
        <time>2012-12-22T06:24:34Z</time>
      </trkpt>
      <trkpt lat="42.904947" lon="-0.692594">
        <ele>1182.1</ele>
        <time>2012-12-22T06:24:44Z</time>
      </trkpt>
      <trkpt lat="42.904868" lon="-0.692739">
        <ele>1184.5</ele>
        <time>2012-12-22T06:24:58Z</time>
      </trkpt>
      <trkpt lat="42.904723" lon="-0.692847">
        <ele>1185.9</ele>
        <time>2012-12-22T06:25:10Z</time>
      </trkpt>
      <trkpt lat="42.904663" lon="-0.692984">
        <ele>1187.4</ele>
        <time>2012-12-22T06:25:22Z</time>
      </trkpt>
      <trkpt lat="42.904563" lon="-0.693142">
        <ele>1189.3</ele>
        <time>2012-12-22T06:25:37Z</time>
      </trkpt>
      <trkpt lat="42.904517" lon="-0.693311">
        <ele>1190.7</ele>
        <time>2012-12-22T06:25:48Z</time>
      </trkpt>
      <trkpt lat="42.904513" lon="-0.693422">
        <ele>1192.2</ele>
        <time>2012-12-22T06:25:57Z</time>
      </trkpt>
      <trkpt lat="42.904473" lon="-0.693552">
        <ele>1193.6</ele>
        <time>2012-12-22T06:26:08Z</time>
      </trkpt>
      <trkpt lat="42.904408" lon="-0.693673">
        <ele>1194.6</ele>
        <time>2012-12-22T06:26:19Z</time>
      </trkpt>
      <trkpt lat="42.904340" lon="-0.693781">
        <ele>1197.0</ele>
        <time>2012-12-22T06:26:30Z</time>
      </trkpt>
      <trkpt lat="42.904271" lon="-0.693884">
        <ele>1198.9</ele>
        <time>2012-12-22T06:26:40Z</time>
      </trkpt>
      <trkpt lat="42.904189" lon="-0.694020">
        <ele>1199.4</ele>
        <time>2012-12-22T06:27:51Z</time>
      </trkpt>
      <trkpt lat="42.904143" lon="-0.694107">
        <ele>1200.8</ele>
        <time>2012-12-22T06:28:02Z</time>
      </trkpt>
      <trkpt lat="42.904101" lon="-0.694233">
        <ele>1201.3</ele>
        <time>2012-12-22T06:28:10Z</time>
      </trkpt>
      <trkpt lat="42.904122" lon="-0.694327">
        <ele>1202.8</ele>
        <time>2012-12-22T06:28:21Z</time>
      </trkpt>
      <trkpt lat="42.904153" lon="-0.694467">
        <ele>1205.2</ele>
        <time>2012-12-22T06:28:31Z</time>
      </trkpt>
      <trkpt lat="42.904168" lon="-0.694609">
        <ele>1206.1</ele>
        <time>2012-12-22T06:28:41Z</time>
      </trkpt>
      <trkpt lat="42.904151" lon="-0.694736">
        <ele>1209.0</ele>
        <time>2012-12-22T06:28:51Z</time>
      </trkpt>
      <trkpt lat="42.904199" lon="-0.694866">
        <ele>1210.9</ele>
        <time>2012-12-22T06:29:00Z</time>
      </trkpt>
      <trkpt lat="42.904169" lon="-0.694992">
        <ele>1211.9</ele>
        <time>2012-12-22T06:29:08Z</time>
      </trkpt>
      <trkpt lat="42.904118" lon="-0.695109">
        <ele>1212.8</ele>
        <time>2012-12-22T06:29:16Z</time>
      </trkpt>
      <trkpt lat="42.904093" lon="-0.695251">
        <ele>1213.3</ele>
        <time>2012-12-22T06:29:25Z</time>
      </trkpt>
      <trkpt lat="42.904123" lon="-0.695379">
        <ele>1214.8</ele>
        <time>2012-12-22T06:29:34Z</time>
      </trkpt>
      <trkpt lat="42.904158" lon="-0.695487">
        <ele>1216.7</ele>
        <time>2012-12-22T06:29:45Z</time>
      </trkpt>
      <trkpt lat="42.904189" lon="-0.695628">
        <ele>1218.6</ele>
        <time>2012-12-22T06:29:54Z</time>
      </trkpt>
      <trkpt lat="42.904182" lon="-0.695773">
        <ele>1220.5</ele>
        <time>2012-12-22T06:30:05Z</time>
      </trkpt>
      <trkpt lat="42.904179" lon="-0.695900">
        <ele>1222.0</ele>
        <time>2012-12-22T06:30:14Z</time>
      </trkpt>
      <trkpt lat="42.904171" lon="-0.696031">
        <ele>1223.4</ele>
        <time>2012-12-22T06:30:23Z</time>
      </trkpt>
      <trkpt lat="42.904159" lon="-0.696164">
        <ele>1225.8</ele>
        <time>2012-12-22T06:30:32Z</time>
      </trkpt>
      <trkpt lat="42.904157" lon="-0.696299">
        <ele>1227.7</ele>
        <time>2012-12-22T06:30:41Z</time>
      </trkpt>
      <trkpt lat="42.904226" lon="-0.696402">
        <ele>1229.7</ele>
        <time>2012-12-22T06:30:50Z</time>
      </trkpt>
      <trkpt lat="42.904297" lon="-0.696497">
        <ele>1231.6</ele>
        <time>2012-12-22T06:30:59Z</time>
      </trkpt>
      <trkpt lat="42.904380" lon="-0.696566">
        <ele>1232.6</ele>
        <time>2012-12-22T06:31:10Z</time>
      </trkpt>
      <trkpt lat="42.904386" lon="-0.696691">
        <ele>1234.0</ele>
        <time>2012-12-22T06:31:19Z</time>
      </trkpt>
      <trkpt lat="42.904349" lon="-0.696820">
        <ele>1235.4</ele>
        <time>2012-12-22T06:31:27Z</time>
      </trkpt>
      <trkpt lat="42.904311" lon="-0.696944">
        <ele>1237.3</ele>
        <time>2012-12-22T06:31:36Z</time>
      </trkpt>
      <trkpt lat="42.904289" lon="-0.697053">
        <ele>1239.3</ele>
        <time>2012-12-22T06:31:49Z</time>
      </trkpt>
      <trkpt lat="42.904271" lon="-0.697201">
        <ele>1242.2</ele>
        <time>2012-12-22T06:32:01Z</time>
      </trkpt>
      <trkpt lat="42.904261" lon="-0.697332">
        <ele>1243.6</ele>
        <time>2012-12-22T06:32:11Z</time>
      </trkpt>
      <trkpt lat="42.904286" lon="-0.697464">
        <ele>1246.5</ele>
        <time>2012-12-22T06:32:22Z</time>
      </trkpt>
      <trkpt lat="42.904327" lon="-0.697570">
        <ele>1247.4</ele>
        <time>2012-12-22T06:32:31Z</time>
      </trkpt>
      <trkpt lat="42.904384" lon="-0.697675">
        <ele>1249.4</ele>
        <time>2012-12-22T06:32:41Z</time>
      </trkpt>
      <trkpt lat="42.904441" lon="-0.697788">
        <ele>1251.3</ele>
        <time>2012-12-22T06:32:52Z</time>
      </trkpt>
      <trkpt lat="42.904516" lon="-0.697873">
        <ele>1253.7</ele>
        <time>2012-12-22T06:33:01Z</time>
      </trkpt>
      <trkpt lat="42.904596" lon="-0.697960">
        <ele>1255.1</ele>
        <time>2012-12-22T06:33:10Z</time>
      </trkpt>
      <trkpt lat="42.904622" lon="-0.698072">
        <ele>1257.1</ele>
        <time>2012-12-22T06:33:20Z</time>
      </trkpt>
      <trkpt lat="42.904631" lon="-0.698208">
        <ele>1259.9</ele>
        <time>2012-12-22T06:33:33Z</time>
      </trkpt>
      <trkpt lat="42.904596" lon="-0.698422">
        <ele>1263.8</ele>
        <time>2012-12-22T06:33:52Z</time>
      </trkpt>
      <trkpt lat="42.904586" lon="-0.698548">
        <ele>1266.2</ele>
        <time>2012-12-22T06:34:03Z</time>
      </trkpt>
      <trkpt lat="42.904603" lon="-0.698684">
        <ele>1269.1</ele>
        <time>2012-12-22T06:34:14Z</time>
      </trkpt>
      <trkpt lat="42.904626" lon="-0.698800">
        <ele>1271.0</ele>
        <time>2012-12-22T06:34:26Z</time>
      </trkpt>
      <trkpt lat="42.904666" lon="-0.698920">
        <ele>1274.8</ele>
        <time>2012-12-22T06:34:39Z</time>
      </trkpt>
      <trkpt lat="42.904710" lon="-0.699026">
        <ele>1277.2</ele>
        <time>2012-12-22T06:34:50Z</time>
      </trkpt>
      <trkpt lat="42.904723" lon="-0.699148">
        <ele>1279.7</ele>
        <time>2012-12-22T06:35:02Z</time>
      </trkpt>
      <trkpt lat="42.904723" lon="-0.699222">
        <ele>1281.6</ele>
        <time>2012-12-22T06:36:29Z</time>
      </trkpt>
      <trkpt lat="42.904669" lon="-0.699388">
        <ele>1284.5</ele>
        <time>2012-12-22T06:36:45Z</time>
      </trkpt>
      <trkpt lat="42.904649" lon="-0.699510">
        <ele>1286.4</ele>
        <time>2012-12-22T06:36:57Z</time>
      </trkpt>
      <trkpt lat="42.904620" lon="-0.699639">
        <ele>1286.4</ele>
        <time>2012-12-22T06:37:09Z</time>
      </trkpt>
      <trkpt lat="42.904574" lon="-0.699796">
        <ele>1286.4</ele>
        <time>2012-12-22T06:37:21Z</time>
      </trkpt>
      <trkpt lat="42.904591" lon="-0.699985">
        <ele>1287.3</ele>
        <time>2012-12-22T06:37:33Z</time>
      </trkpt>
      <trkpt lat="42.904543" lon="-0.700151">
        <ele>1288.8</ele>
        <time>2012-12-22T06:37:46Z</time>
      </trkpt>
      <trkpt lat="42.904517" lon="-0.700299">
        <ele>1289.3</ele>
        <time>2012-12-22T06:37:56Z</time>
      </trkpt>
      <trkpt lat="42.904478" lon="-0.700479">
        <ele>1291.2</ele>
        <time>2012-12-22T06:38:09Z</time>
      </trkpt>
      <trkpt lat="42.904460" lon="-0.700660">
        <ele>1292.6</ele>
        <time>2012-12-22T06:38:23Z</time>
      </trkpt>
      <trkpt lat="42.904400" lon="-0.700857">
        <ele>1296.0</ele>
        <time>2012-12-22T06:38:40Z</time>
      </trkpt>
      <trkpt lat="42.904433" lon="-0.701061">
        <ele>1299.4</ele>
        <time>2012-12-22T06:39:00Z</time>
      </trkpt>
      <trkpt lat="42.904447" lon="-0.701239">
        <ele>1302.2</ele>
        <time>2012-12-22T06:39:18Z</time>
      </trkpt>
      <trkpt lat="42.904339" lon="-0.701446">
        <ele>1306.6</ele>
        <time>2012-12-22T06:39:43Z</time>
      </trkpt>
      <trkpt lat="42.904315" lon="-0.701666">
        <ele>1309.4</ele>
        <time>2012-12-22T06:40:00Z</time>
      </trkpt>
      <trkpt lat="42.904353" lon="-0.701795">
        <ele>1312.3</ele>
        <time>2012-12-22T06:40:14Z</time>
      </trkpt>
      <trkpt lat="42.904318" lon="-0.701935">
        <ele>1314.7</ele>
        <time>2012-12-22T06:40:29Z</time>
      </trkpt>
      <trkpt lat="42.904367" lon="-0.702059">
        <ele>1317.1</ele>
        <time>2012-12-22T06:40:46Z</time>
      </trkpt>
      <trkpt lat="42.904352" lon="-0.702197">
        <ele>1320.5</ele>
        <time>2012-12-22T06:41:00Z</time>
      </trkpt>
      <trkpt lat="42.904360" lon="-0.702324">
        <ele>1322.4</ele>
        <time>2012-12-22T06:41:14Z</time>
      </trkpt>
      <trkpt lat="42.904364" lon="-0.702428">
        <ele>1324.8</ele>
        <time>2012-12-22T06:41:31Z</time>
      </trkpt>
      <trkpt lat="42.904334" lon="-0.702565">
        <ele>1326.8</ele>
        <time>2012-12-22T06:41:48Z</time>
      </trkpt>
      <trkpt lat="42.904318" lon="-0.702724">
        <ele>1329.6</ele>
        <time>2012-12-22T06:42:06Z</time>
      </trkpt>
      <trkpt lat="42.904355" lon="-0.702849">
        <ele>1332.0</ele>
        <time>2012-12-22T06:42:23Z</time>
      </trkpt>
      <trkpt lat="42.904384" lon="-0.702864">
        <ele>1334.0</ele>
        <time>2012-12-22T06:44:13Z</time>
      </trkpt>
      <trkpt lat="42.904420" lon="-0.702975">
        <ele>1335.9</ele>
        <time>2012-12-22T06:44:45Z</time>
      </trkpt>
      <trkpt lat="42.904408" lon="-0.703146">
        <ele>1339.7</ele>
        <time>2012-12-22T06:44:58Z</time>
      </trkpt>
      <trkpt lat="42.904444" lon="-0.703342">
        <ele>1340.7</ele>
        <time>2012-12-22T06:45:10Z</time>
      </trkpt>
      <trkpt lat="42.904497" lon="-0.703524">
        <ele>1342.1</ele>
        <time>2012-12-22T06:45:20Z</time>
      </trkpt>
      <trkpt lat="42.904565" lon="-0.703617">
        <ele>1343.1</ele>
        <time>2012-12-22T06:45:29Z</time>
      </trkpt>
      <trkpt lat="42.904489" lon="-0.703773">
        <ele>1345.0</ele>
        <time>2012-12-22T06:45:44Z</time>
      </trkpt>
      <trkpt lat="42.904442" lon="-0.703899">
        <ele>1347.4</ele>
        <time>2012-12-22T06:46:00Z</time>
      </trkpt>
      <trkpt lat="42.904347" lon="-0.704052">
        <ele>1349.3</ele>
        <time>2012-12-22T06:46:13Z</time>
      </trkpt>
      <trkpt lat="42.904308" lon="-0.704212">
        <ele>1351.8</ele>
        <time>2012-12-22T06:46:22Z</time>
      </trkpt>
      <trkpt lat="42.904323" lon="-0.704351">
        <ele>1353.7</ele>
        <time>2012-12-22T06:46:32Z</time>
      </trkpt>
      <trkpt lat="42.904330" lon="-0.704538">
        <ele>1355.6</ele>
        <time>2012-12-22T06:46:43Z</time>
      </trkpt>
      <trkpt lat="42.904312" lon="-0.704706">
        <ele>1356.6</ele>
        <time>2012-12-22T06:46:53Z</time>
      </trkpt>
      <trkpt lat="42.904337" lon="-0.704842">
        <ele>1357.0</ele>
        <time>2012-12-22T06:47:01Z</time>
      </trkpt>
      <trkpt lat="42.904360" lon="-0.704998">
        <ele>1357.0</ele>
        <time>2012-12-22T06:47:10Z</time>
      </trkpt>
      <trkpt lat="42.904315" lon="-0.705133">
        <ele>1358.0</ele>
        <time>2012-12-22T06:47:19Z</time>
      </trkpt>
      <trkpt lat="42.904299" lon="-0.705264">
        <ele>1358.5</ele>
        <time>2012-12-22T06:47:27Z</time>
      </trkpt>
      <trkpt lat="42.904291" lon="-0.705378">
        <ele>1359.0</ele>
        <time>2012-12-22T06:47:35Z</time>
      </trkpt>
      <trkpt lat="42.904238" lon="-0.705489">
        <ele>1359.9</ele>
        <time>2012-12-22T06:47:45Z</time>
      </trkpt>
      <trkpt lat="42.904207" lon="-0.705604">
        <ele>1360.4</ele>
        <time>2012-12-22T06:47:53Z</time>
      </trkpt>
      <trkpt lat="42.904167" lon="-0.705732">
        <ele>1360.4</ele>
        <time>2012-12-22T06:48:02Z</time>
      </trkpt>
      <trkpt lat="42.904221" lon="-0.705825">
        <ele>1361.4</ele>
        <time>2012-12-22T06:50:13Z</time>
      </trkpt>
      <trkpt lat="42.904184" lon="-0.705976">
        <ele>1361.4</ele>
        <time>2012-12-22T06:50:24Z</time>
      </trkpt>
      <trkpt lat="42.904194" lon="-0.706094">
        <ele>1360.9</ele>
        <time>2012-12-22T06:50:33Z</time>
      </trkpt>
      <trkpt lat="42.904189" lon="-0.706243">
        <ele>1361.4</ele>
        <time>2012-12-22T06:50:41Z</time>
      </trkpt>
      <trkpt lat="42.904197" lon="-0.706367">
        <ele>1361.4</ele>
        <time>2012-12-22T06:50:48Z</time>
      </trkpt>
      <trkpt lat="42.904222" lon="-0.706481">
        <ele>1360.9</ele>
        <time>2012-12-22T06:50:55Z</time>
      </trkpt>
      <trkpt lat="42.904223" lon="-0.706602">
        <ele>1360.9</ele>
        <time>2012-12-22T06:51:04Z</time>
      </trkpt>
      <trkpt lat="42.904246" lon="-0.706732">
        <ele>1360.9</ele>
        <time>2012-12-22T06:51:12Z</time>
      </trkpt>
      <trkpt lat="42.904256" lon="-0.706862">
        <ele>1360.9</ele>
        <time>2012-12-22T06:51:20Z</time>
      </trkpt>
      <trkpt lat="42.904232" lon="-0.707024">
        <ele>1359.4</ele>
        <time>2012-12-22T06:51:28Z</time>
      </trkpt>
      <trkpt lat="42.904198" lon="-0.707118">
        <ele>1358.0</ele>
        <time>2012-12-22T06:51:36Z</time>
      </trkpt>
      <trkpt lat="42.904175" lon="-0.707226">
        <ele>1356.6</ele>
        <time>2012-12-22T06:51:43Z</time>
      </trkpt>
      <trkpt lat="42.904128" lon="-0.707313">
        <ele>1355.1</ele>
        <time>2012-12-22T06:51:50Z</time>
      </trkpt>
      <trkpt lat="42.904059" lon="-0.707446">
        <ele>1355.6</ele>
        <time>2012-12-22T06:52:09Z</time>
      </trkpt>
      <trkpt lat="42.904009" lon="-0.707559">
        <ele>1355.6</ele>
        <time>2012-12-22T06:52:16Z</time>
      </trkpt>
      <trkpt lat="42.903951" lon="-0.707673">
        <ele>1356.1</ele>
        <time>2012-12-22T06:52:23Z</time>
      </trkpt>
      <trkpt lat="42.903896" lon="-0.707772">
        <ele>1355.6</ele>
        <time>2012-12-22T06:52:33Z</time>
      </trkpt>
      <trkpt lat="42.903826" lon="-0.707855">
        <ele>1356.1</ele>
        <time>2012-12-22T06:52:42Z</time>
      </trkpt>
      <trkpt lat="42.903752" lon="-0.707945">
        <ele>1355.6</ele>
        <time>2012-12-22T06:52:51Z</time>
      </trkpt>
      <trkpt lat="42.903672" lon="-0.708035">
        <ele>1356.1</ele>
        <time>2012-12-22T06:53:30Z</time>
      </trkpt>
      <trkpt lat="42.903544" lon="-0.708218">
        <ele>1357.5</ele>
        <time>2012-12-22T06:55:22Z</time>
      </trkpt>
      <trkpt lat="42.903537" lon="-0.708270">
        <ele>1357.0</ele>
        <time>2012-12-22T06:57:45Z</time>
      </trkpt>
      <trkpt lat="42.903447" lon="-0.708339">
        <ele>1357.5</ele>
        <time>2012-12-22T06:57:54Z</time>
      </trkpt>
      <trkpt lat="42.903377" lon="-0.708402">
        <ele>1358.0</ele>
        <time>2012-12-22T06:58:01Z</time>
      </trkpt>
      <trkpt lat="42.903306" lon="-0.708500">
        <ele>1357.5</ele>
        <time>2012-12-22T06:58:09Z</time>
      </trkpt>
      <trkpt lat="42.903250" lon="-0.708593">
        <ele>1359.0</ele>
        <time>2012-12-22T06:58:18Z</time>
      </trkpt>
      <trkpt lat="42.903168" lon="-0.708611">
        <ele>1359.4</ele>
        <time>2012-12-22T06:58:30Z</time>
      </trkpt>
      <trkpt lat="42.903092" lon="-0.708660">
        <ele>1361.4</ele>
        <time>2012-12-22T06:58:46Z</time>
      </trkpt>
      <trkpt lat="42.902994" lon="-0.708720">
        <ele>1362.3</ele>
        <time>2012-12-22T06:59:11Z</time>
      </trkpt>
      <trkpt lat="42.902895" lon="-0.708865">
        <ele>1362.3</ele>
        <time>2012-12-22T06:59:30Z</time>
      </trkpt>
      <trkpt lat="42.902823" lon="-0.709002">
        <ele>1363.8</ele>
        <time>2012-12-22T06:59:41Z</time>
      </trkpt>
      <trkpt lat="42.902762" lon="-0.709104">
        <ele>1367.6</ele>
        <time>2012-12-22T06:59:59Z</time>
      </trkpt>
      <trkpt lat="42.902666" lon="-0.709194">
        <ele>1371.0</ele>
        <time>2012-12-22T07:00:18Z</time>
      </trkpt>
      <trkpt lat="42.902564" lon="-0.709241">
        <ele>1375.3</ele>
        <time>2012-12-22T07:00:36Z</time>
      </trkpt>
      <trkpt lat="42.902502" lon="-0.709325">
        <ele>1384.4</ele>
        <time>2012-12-22T07:01:24Z</time>
      </trkpt>
      <trkpt lat="42.902483" lon="-0.709406">
        <ele>1387.8</ele>
        <time>2012-12-22T07:01:53Z</time>
      </trkpt>
      <trkpt lat="42.902437" lon="-0.709371">
        <ele>1392.1</ele>
        <time>2012-12-22T07:02:29Z</time>
      </trkpt>
      <trkpt lat="42.902285" lon="-0.709298">
        <ele>1396.4</ele>
        <time>2012-12-22T07:02:56Z</time>
      </trkpt>
      <trkpt lat="42.902186" lon="-0.709197">
        <ele>1400.8</ele>
        <time>2012-12-22T07:03:18Z</time>
      </trkpt>
      <trkpt lat="42.902032" lon="-0.709100">
        <ele>1404.1</ele>
        <time>2012-12-22T07:03:39Z</time>
      </trkpt>
      <trkpt lat="42.901905" lon="-0.709129">
        <ele>1407.0</ele>
        <time>2012-12-22T07:03:59Z</time>
      </trkpt>
      <trkpt lat="42.901758" lon="-0.709156">
        <ele>1409.4</ele>
        <time>2012-12-22T07:04:26Z</time>
      </trkpt>
      <trkpt lat="42.901737" lon="-0.709276">
        <ele>1412.8</ele>
        <time>2012-12-22T07:04:45Z</time>
      </trkpt>
      <trkpt lat="42.901641" lon="-0.709415">
        <ele>1415.7</ele>
        <time>2012-12-22T07:05:02Z</time>
      </trkpt>
      <trkpt lat="42.901545" lon="-0.709540">
        <ele>1418.1</ele>
        <time>2012-12-22T07:05:23Z</time>
      </trkpt>
      <trkpt lat="42.901434" lon="-0.709624">
        <ele>1420.0</ele>
        <time>2012-12-22T07:05:37Z</time>
      </trkpt>
      <trkpt lat="42.901449" lon="-0.709832">
        <ele>1421.9</ele>
        <time>2012-12-22T07:05:53Z</time>
      </trkpt>
      <trkpt lat="42.901313" lon="-0.709913">
        <ele>1426.7</ele>
        <time>2012-12-22T07:06:22Z</time>
      </trkpt>
      <trkpt lat="42.901218" lon="-0.710022">
        <ele>1428.7</ele>
        <time>2012-12-22T07:06:40Z</time>
      </trkpt>
      <trkpt lat="42.901121" lon="-0.710129">
        <ele>1432.0</ele>
        <time>2012-12-22T07:07:01Z</time>
      </trkpt>
      <trkpt lat="42.900992" lon="-0.710229">
        <ele>1434.4</ele>
        <time>2012-12-22T07:07:22Z</time>
      </trkpt>
      <trkpt lat="42.900916" lon="-0.710330">
        <ele>1435.4</ele>
        <time>2012-12-22T07:07:39Z</time>
      </trkpt>
      <trkpt lat="42.900784" lon="-0.710423">
        <ele>1436.3</ele>
        <time>2012-12-22T07:08:00Z</time>
      </trkpt>
      <trkpt lat="42.900680" lon="-0.710491">
        <ele>1437.8</ele>
        <time>2012-12-22T07:08:14Z</time>
      </trkpt>
      <trkpt lat="42.900580" lon="-0.710583">
        <ele>1438.8</ele>
        <time>2012-12-22T07:08:28Z</time>
      </trkpt>
      <trkpt lat="42.900442" lon="-0.710668">
        <ele>1439.2</ele>
        <time>2012-12-22T07:08:47Z</time>
      </trkpt>
      <trkpt lat="42.900310" lon="-0.710792">
        <ele>1440.2</ele>
        <time>2012-12-22T07:09:01Z</time>
      </trkpt>
      <trkpt lat="42.900206" lon="-0.710843">
        <ele>1441.2</ele>
        <time>2012-12-22T07:09:12Z</time>
      </trkpt>
      <trkpt lat="42.900098" lon="-0.710956">
        <ele>1443.1</ele>
        <time>2012-12-22T07:09:30Z</time>
      </trkpt>
      <trkpt lat="42.899984" lon="-0.711108">
        <ele>1445.5</ele>
        <time>2012-12-22T07:09:52Z</time>
      </trkpt>
      <trkpt lat="42.899881" lon="-0.711082">
        <ele>1447.9</ele>
        <time>2012-12-22T07:10:10Z</time>
      </trkpt>
      <trkpt lat="42.899787" lon="-0.711110">
        <ele>1450.3</ele>
        <time>2012-12-22T07:10:26Z</time>
      </trkpt>
      <trkpt lat="42.899682" lon="-0.711266">
        <ele>1452.7</ele>
        <time>2012-12-22T07:10:46Z</time>
      </trkpt>
      <trkpt lat="42.899622" lon="-0.711395">
        <ele>1455.1</ele>
        <time>2012-12-22T07:11:02Z</time>
      </trkpt>
      <trkpt lat="42.899499" lon="-0.711517">
        <ele>1457.5</ele>
        <time>2012-12-22T07:11:19Z</time>
      </trkpt>
      <trkpt lat="42.899406" lon="-0.711545">
        <ele>1460.4</ele>
        <time>2012-12-22T07:11:32Z</time>
      </trkpt>
      <trkpt lat="42.899344" lon="-0.711711">
        <ele>1462.3</ele>
        <time>2012-12-22T07:11:48Z</time>
      </trkpt>
      <trkpt lat="42.899244" lon="-0.711851">
        <ele>1464.2</ele>
        <time>2012-12-22T07:12:08Z</time>
      </trkpt>
      <trkpt lat="42.899173" lon="-0.711951">
        <ele>1466.6</ele>
        <time>2012-12-22T07:12:26Z</time>
      </trkpt>
      <trkpt lat="42.899054" lon="-0.712046">
        <ele>1470.5</ele>
        <time>2012-12-22T07:12:50Z</time>
      </trkpt>
      <trkpt lat="42.898959" lon="-0.712128">
        <ele>1472.4</ele>
        <time>2012-12-22T07:13:07Z</time>
      </trkpt>
      <trkpt lat="42.898906" lon="-0.712305">
        <ele>1475.3</ele>
        <time>2012-12-22T07:13:27Z</time>
      </trkpt>
      <trkpt lat="42.898799" lon="-0.712378">
        <ele>1477.2</ele>
        <time>2012-12-22T07:13:42Z</time>
      </trkpt>
      <trkpt lat="42.898742" lon="-0.712496">
        <ele>1481.5</ele>
        <time>2012-12-22T07:14:11Z</time>
      </trkpt>
      <trkpt lat="42.898903" lon="-0.712558">
        <ele>1483.4</ele>
        <time>2012-12-22T07:14:34Z</time>
      </trkpt>
      <trkpt lat="42.899118" lon="-0.712601">
        <ele>1487.8</ele>
        <time>2012-12-22T07:15:04Z</time>
      </trkpt>
      <trkpt lat="42.899295" lon="-0.712601">
        <ele>1490.7</ele>
        <time>2012-12-22T07:15:32Z</time>
      </trkpt>
      <trkpt lat="42.899326" lon="-0.712660">
        <ele>1493.6</ele>
        <time>2012-12-22T07:15:53Z</time>
      </trkpt>
      <trkpt lat="42.899215" lon="-0.712756">
        <ele>1495.5</ele>
        <time>2012-12-22T07:16:12Z</time>
      </trkpt>
      <trkpt lat="42.899109" lon="-0.712908">
        <ele>1498.3</ele>
        <time>2012-12-22T07:16:34Z</time>
      </trkpt>
      <trkpt lat="42.898986" lon="-0.713026">
        <ele>1500.3</ele>
        <time>2012-12-22T07:16:54Z</time>
      </trkpt>
      <trkpt lat="42.898917" lon="-0.713152">
        <ele>1503.2</ele>
        <time>2012-12-22T07:17:18Z</time>
      </trkpt>
      <trkpt lat="42.898845" lon="-0.713259">
        <ele>1506.0</ele>
        <time>2012-12-22T07:17:36Z</time>
      </trkpt>
      <trkpt lat="42.898775" lon="-0.713398">
        <ele>1508.0</ele>
        <time>2012-12-22T07:17:58Z</time>
      </trkpt>
      <trkpt lat="42.898687" lon="-0.713524">
        <ele>1509.9</ele>
        <time>2012-12-22T07:18:21Z</time>
      </trkpt>
      <trkpt lat="42.898723" lon="-0.713614">
        <ele>1512.8</ele>
        <time>2012-12-22T07:18:43Z</time>
      </trkpt>
      <trkpt lat="42.898862" lon="-0.713539">
        <ele>1516.6</ele>
        <time>2012-12-22T07:19:05Z</time>
      </trkpt>
      <trkpt lat="42.899009" lon="-0.713420">
        <ele>1518.1</ele>
        <time>2012-12-22T07:19:19Z</time>
      </trkpt>
      <trkpt lat="42.899051" lon="-0.713462">
        <ele>1519.0</ele>
        <time>2012-12-22T07:21:01Z</time>
      </trkpt>
      <trkpt lat="42.899039" lon="-0.713588">
        <ele>1522.9</ele>
        <time>2012-12-22T07:21:17Z</time>
      </trkpt>
      <trkpt lat="42.899042" lon="-0.713719">
        <ele>1525.3</ele>
        <time>2012-12-22T07:21:33Z</time>
      </trkpt>
      <trkpt lat="42.898981" lon="-0.713833">
        <ele>1527.2</ele>
        <time>2012-12-22T07:21:52Z</time>
      </trkpt>
      <trkpt lat="42.898910" lon="-0.713903">
        <ele>1528.2</ele>
        <time>2012-12-22T07:22:02Z</time>
      </trkpt>
      <trkpt lat="42.898872" lon="-0.714011">
        <ele>1528.6</ele>
        <time>2012-12-22T07:22:11Z</time>
      </trkpt>
      <trkpt lat="42.898924" lon="-0.713998">
        <ele>1529.1</ele>
        <time>2012-12-22T07:26:16Z</time>
      </trkpt>
      <trkpt lat="42.898862" lon="-0.714088">
        <ele>1530.6</ele>
        <time>2012-12-22T07:26:30Z</time>
      </trkpt>
      <trkpt lat="42.898812" lon="-0.714193">
        <ele>1532.5</ele>
        <time>2012-12-22T07:26:44Z</time>
      </trkpt>
      <trkpt lat="42.898785" lon="-0.714330">
        <ele>1534.4</ele>
        <time>2012-12-22T07:27:00Z</time>
      </trkpt>
      <trkpt lat="42.898763" lon="-0.714433">
        <ele>1535.4</ele>
        <time>2012-12-22T07:27:17Z</time>
      </trkpt>
      <trkpt lat="42.898728" lon="-0.714544">
        <ele>1537.3</ele>
        <time>2012-12-22T07:27:31Z</time>
      </trkpt>
      <trkpt lat="42.898695" lon="-0.714673">
        <ele>1539.2</ele>
        <time>2012-12-22T07:27:47Z</time>
      </trkpt>
      <trkpt lat="42.898658" lon="-0.714797">
        <ele>1540.7</ele>
        <time>2012-12-22T07:28:00Z</time>
      </trkpt>
      <trkpt lat="42.898598" lon="-0.714920">
        <ele>1542.1</ele>
        <time>2012-12-22T07:28:14Z</time>
      </trkpt>
      <trkpt lat="42.898563" lon="-0.715024">
        <ele>1542.6</ele>
        <time>2012-12-22T07:28:26Z</time>
      </trkpt>
      <trkpt lat="42.898536" lon="-0.715138">
        <ele>1544.5</ele>
        <time>2012-12-22T07:28:43Z</time>
      </trkpt>
      <trkpt lat="42.898510" lon="-0.715251">
        <ele>1546.9</ele>
        <time>2012-12-22T07:28:56Z</time>
      </trkpt>
      <trkpt lat="42.898479" lon="-0.715357">
        <ele>1547.4</ele>
        <time>2012-12-22T07:29:09Z</time>
      </trkpt>
      <trkpt lat="42.898475" lon="-0.715478">
        <ele>1549.3</ele>
        <time>2012-12-22T07:29:21Z</time>
      </trkpt>
      <trkpt lat="42.898445" lon="-0.715600">
        <ele>1550.7</ele>
        <time>2012-12-22T07:29:34Z</time>
      </trkpt>
      <trkpt lat="42.898396" lon="-0.715711">
        <ele>1553.2</ele>
        <time>2012-12-22T07:29:51Z</time>
      </trkpt>
      <trkpt lat="42.898376" lon="-0.715830">
        <ele>1555.1</ele>
        <time>2012-12-22T07:30:05Z</time>
      </trkpt>
      <trkpt lat="42.898362" lon="-0.715947">
        <ele>1557.5</ele>
        <time>2012-12-22T07:30:21Z</time>
      </trkpt>
      <trkpt lat="42.898338" lon="-0.716078">
        <ele>1559.9</ele>
        <time>2012-12-22T07:30:37Z</time>
      </trkpt>
      <trkpt lat="42.898299" lon="-0.716200">
        <ele>1562.3</ele>
        <time>2012-12-22T07:30:54Z</time>
      </trkpt>
      <trkpt lat="42.898257" lon="-0.716270">
        <ele>1563.7</ele>
        <time>2012-12-22T07:31:13Z</time>
      </trkpt>
      <trkpt lat="42.898192" lon="-0.716338">
        <ele>1564.2</ele>
        <time>2012-12-22T07:31:30Z</time>
      </trkpt>
      <trkpt lat="42.898127" lon="-0.716317">
        <ele>1564.2</ele>
        <time>2012-12-22T07:32:58Z</time>
      </trkpt>
      <trkpt lat="42.898064" lon="-0.716384">
        <ele>1602.6</ele>
        <time>2012-12-22T07:34:04Z</time>
      </trkpt>
      <trkpt lat="42.897982" lon="-0.716570">
        <ele>1602.5</ele>
        <time>2012-12-22T07:44:45Z</time>
      </trkpt>
      <trkpt lat="42.897949" lon="-0.716662">
        <ele>1569.0</ele>
        <time>2012-12-22T07:46:54Z</time>
        <name>Cabane d Ansabere</name>
      </trkpt>
      <trkpt lat="42.897953" lon="-0.716803">
        <ele>1570.0</ele>
        <time>2012-12-22T07:47:07Z</time>
      </trkpt>
      <trkpt lat="42.897949" lon="-0.716936">
        <ele>1570.9</ele>
        <time>2012-12-22T07:47:19Z</time>
      </trkpt>
      <trkpt lat="42.897978" lon="-0.717059">
        <ele>1571.9</ele>
        <time>2012-12-22T07:47:30Z</time>
      </trkpt>
      <trkpt lat="42.897992" lon="-0.717188">
        <ele>1574.3</ele>
        <time>2012-12-22T07:47:44Z</time>
      </trkpt>
      <trkpt lat="42.898006" lon="-0.717326">
        <ele>1576.2</ele>
        <time>2012-12-22T07:47:56Z</time>
      </trkpt>
      <trkpt lat="42.897975" lon="-0.717456">
        <ele>1578.6</ele>
        <time>2012-12-22T07:48:10Z</time>
      </trkpt>
      <trkpt lat="42.897987" lon="-0.717561">
        <ele>1581.0</ele>
        <time>2012-12-22T07:48:23Z</time>
      </trkpt>
      <trkpt lat="42.897995" lon="-0.717686">
        <ele>1582.9</ele>
        <time>2012-12-22T07:48:38Z</time>
      </trkpt>
      <trkpt lat="42.898024" lon="-0.717814">
        <ele>1585.3</ele>
        <time>2012-12-22T07:48:56Z</time>
      </trkpt>
      <trkpt lat="42.897986" lon="-0.717935">
        <ele>1588.7</ele>
        <time>2012-12-22T07:49:16Z</time>
      </trkpt>
      <trkpt lat="42.897972" lon="-0.718047">
        <ele>1591.6</ele>
        <time>2012-12-22T07:49:30Z</time>
      </trkpt>
      <trkpt lat="42.897966" lon="-0.718177">
        <ele>1593.0</ele>
        <time>2012-12-22T07:49:46Z</time>
      </trkpt>
      <trkpt lat="42.897938" lon="-0.718271">
        <ele>1595.0</ele>
        <time>2012-12-22T07:50:01Z</time>
      </trkpt>
      <trkpt lat="42.897920" lon="-0.718395">
        <ele>1596.9</ele>
        <time>2012-12-22T07:50:16Z</time>
      </trkpt>
      <trkpt lat="42.897918" lon="-0.718529">
        <ele>1598.3</ele>
        <time>2012-12-22T07:50:33Z</time>
      </trkpt>
      <trkpt lat="42.897903" lon="-0.718636">
        <ele>1601.7</ele>
        <time>2012-12-22T07:50:50Z</time>
      </trkpt>
      <trkpt lat="42.897847" lon="-0.718775">
        <ele>1604.1</ele>
        <time>2012-12-22T07:51:13Z</time>
      </trkpt>
      <trkpt lat="42.897836" lon="-0.718916">
        <ele>1606.5</ele>
        <time>2012-12-22T07:51:32Z</time>
      </trkpt>
      <trkpt lat="42.897810" lon="-0.719057">
        <ele>1609.9</ele>
        <time>2012-12-22T07:51:48Z</time>
      </trkpt>
      <trkpt lat="42.897833" lon="-0.719198">
        <ele>1613.7</ele>
        <time>2012-12-22T07:52:05Z</time>
      </trkpt>
      <trkpt lat="42.897828" lon="-0.719315">
        <ele>1616.6</ele>
        <time>2012-12-22T07:52:20Z</time>
      </trkpt>
      <trkpt lat="42.897828" lon="-0.719422">
        <ele>1619.0</ele>
        <time>2012-12-22T07:52:36Z</time>
      </trkpt>
      <trkpt lat="42.897817" lon="-0.719534">
        <ele>1622.4</ele>
        <time>2012-12-22T07:52:53Z</time>
      </trkpt>
      <trkpt lat="42.897831" lon="-0.719664">
        <ele>1625.2</ele>
        <time>2012-12-22T07:53:09Z</time>
      </trkpt>
      <trkpt lat="42.897807" lon="-0.719793">
        <ele>1627.7</ele>
        <time>2012-12-22T07:53:23Z</time>
      </trkpt>
      <trkpt lat="42.897803" lon="-0.719879">
        <ele>1629.6</ele>
        <time>2012-12-22T07:53:37Z</time>
      </trkpt>
      <trkpt lat="42.897818" lon="-0.720007">
        <ele>1631.0</ele>
        <time>2012-12-22T07:53:49Z</time>
      </trkpt>
      <trkpt lat="42.897879" lon="-0.720084">
        <ele>1632.9</ele>
        <time>2012-12-22T07:54:01Z</time>
      </trkpt>
      <trkpt lat="42.897896" lon="-0.720195">
        <ele>1636.3</ele>
        <time>2012-12-22T07:54:11Z</time>
      </trkpt>
      <trkpt lat="42.897917" lon="-0.720296">
        <ele>1639.2</ele>
        <time>2012-12-22T07:54:25Z</time>
      </trkpt>
      <trkpt lat="42.897907" lon="-0.720421">
        <ele>1642.1</ele>
        <time>2012-12-22T07:54:37Z</time>
      </trkpt>
      <trkpt lat="42.897933" lon="-0.720537">
        <ele>1644.9</ele>
        <time>2012-12-22T07:54:52Z</time>
      </trkpt>
      <trkpt lat="42.897940" lon="-0.720645">
        <ele>1647.8</ele>
        <time>2012-12-22T07:55:09Z</time>
      </trkpt>
      <trkpt lat="42.897954" lon="-0.720757">
        <ele>1652.2</ele>
        <time>2012-12-22T07:55:29Z</time>
      </trkpt>
      <trkpt lat="42.897964" lon="-0.720880">
        <ele>1655.5</ele>
        <time>2012-12-22T07:55:49Z</time>
      </trkpt>
      <trkpt lat="42.897952" lon="-0.720983">
        <ele>1658.4</ele>
        <time>2012-12-22T07:56:05Z</time>
      </trkpt>
      <trkpt lat="42.897975" lon="-0.721072">
        <ele>1662.7</ele>
        <time>2012-12-22T07:56:22Z</time>
      </trkpt>
      <trkpt lat="42.897967" lon="-0.721171">
        <ele>1666.1</ele>
        <time>2012-12-22T07:57:45Z</time>
      </trkpt>
      <trkpt lat="42.897963" lon="-0.721300">
        <ele>1670.4</ele>
        <time>2012-12-22T07:58:06Z</time>
      </trkpt>
      <trkpt lat="42.897980" lon="-0.721431">
        <ele>1675.2</ele>
        <time>2012-12-22T07:58:25Z</time>
      </trkpt>
      <trkpt lat="42.898020" lon="-0.721571">
        <ele>1680.0</ele>
        <time>2012-12-22T07:58:55Z</time>
      </trkpt>
      <trkpt lat="42.898029" lon="-0.721649">
        <ele>1685.3</ele>
        <time>2012-12-22T07:59:29Z</time>
      </trkpt>
      <trkpt lat="42.898053" lon="-0.721778">
        <ele>1689.2</ele>
        <time>2012-12-22T07:59:51Z</time>
      </trkpt>
      <trkpt lat="42.898040" lon="-0.721883">
        <ele>1693.0</ele>
        <time>2012-12-22T08:00:12Z</time>
      </trkpt>
      <trkpt lat="42.898027" lon="-0.721962">
        <ele>1698.8</ele>
        <time>2012-12-22T08:00:39Z</time>
      </trkpt>
      <trkpt lat="42.898084" lon="-0.722090">
        <ele>1703.6</ele>
        <time>2012-12-22T08:01:10Z</time>
      </trkpt>
      <trkpt lat="42.898073" lon="-0.722163">
        <ele>1708.4</ele>
        <time>2012-12-22T08:01:33Z</time>
      </trkpt>
      <trkpt lat="42.898083" lon="-0.722264">
        <ele>1713.2</ele>
        <time>2012-12-22T08:02:02Z</time>
      </trkpt>
      <trkpt lat="42.898174" lon="-0.722361">
        <ele>1718.0</ele>
        <time>2012-12-22T08:02:31Z</time>
      </trkpt>
      <trkpt lat="42.898190" lon="-0.722439">
        <ele>1722.3</ele>
        <time>2012-12-22T08:02:58Z</time>
      </trkpt>
      <trkpt lat="42.898198" lon="-0.722592">
        <ele>1726.7</ele>
        <time>2012-12-22T08:03:22Z</time>
      </trkpt>
      <trkpt lat="42.898189" lon="-0.722713">
        <ele>1730.5</ele>
        <time>2012-12-22T08:03:45Z</time>
      </trkpt>
      <trkpt lat="42.898227" lon="-0.722845">
        <ele>1734.4</ele>
        <time>2012-12-22T08:04:03Z</time>
      </trkpt>
      <trkpt lat="42.898237" lon="-0.722941">
        <ele>1736.8</ele>
        <time>2012-12-22T08:06:37Z</time>
      </trkpt>
      <trkpt lat="42.898305" lon="-0.723048">
        <ele>1741.1</ele>
        <time>2012-12-22T08:06:57Z</time>
      </trkpt>
      <trkpt lat="42.898308" lon="-0.723148">
        <ele>1744.4</ele>
        <time>2012-12-22T08:07:16Z</time>
      </trkpt>
      <trkpt lat="42.898305" lon="-0.723268">
        <ele>1748.8</ele>
        <time>2012-12-22T08:07:37Z</time>
      </trkpt>
      <trkpt lat="42.898329" lon="-0.723374">
        <ele>1753.1</ele>
        <time>2012-12-22T08:07:55Z</time>
      </trkpt>
      <trkpt lat="42.898310" lon="-0.723473">
        <ele>1756.5</ele>
        <time>2012-12-22T08:08:17Z</time>
      </trkpt>
      <trkpt lat="42.898288" lon="-0.723586">
        <ele>1759.8</ele>
        <time>2012-12-22T08:08:36Z</time>
      </trkpt>
      <trkpt lat="42.898265" lon="-0.723703">
        <ele>1763.2</ele>
        <time>2012-12-22T08:09:01Z</time>
      </trkpt>
      <trkpt lat="42.898297" lon="-0.723802">
        <ele>1766.6</ele>
        <time>2012-12-22T08:09:20Z</time>
      </trkpt>
      <trkpt lat="42.898289" lon="-0.723890">
        <ele>1769.9</ele>
        <time>2012-12-22T08:09:36Z</time>
      </trkpt>
      <trkpt lat="42.898263" lon="-0.723976">
        <ele>1772.8</ele>
        <time>2012-12-22T08:09:51Z</time>
      </trkpt>
      <trkpt lat="42.898263" lon="-0.724117">
        <ele>1776.2</ele>
        <time>2012-12-22T08:10:10Z</time>
      </trkpt>
      <trkpt lat="42.898286" lon="-0.724226">
        <ele>1780.0</ele>
        <time>2012-12-22T08:10:31Z</time>
      </trkpt>
      <trkpt lat="42.898307" lon="-0.724320">
        <ele>1782.4</ele>
        <time>2012-12-22T08:10:44Z</time>
      </trkpt>
      <trkpt lat="42.898317" lon="-0.724397">
        <ele>1785.3</ele>
        <time>2012-12-22T08:10:57Z</time>
      </trkpt>
      <trkpt lat="42.898339" lon="-0.724504">
        <ele>1788.7</ele>
        <time>2012-12-22T08:11:19Z</time>
      </trkpt>
      <trkpt lat="42.898350" lon="-0.724568">
        <ele>1791.1</ele>
        <time>2012-12-22T08:12:31Z</time>
      </trkpt>
      <trkpt lat="42.898363" lon="-0.724688">
        <ele>1795.4</ele>
        <time>2012-12-22T08:13:10Z</time>
      </trkpt>
      <trkpt lat="42.898385" lon="-0.724771">
        <ele>1799.7</ele>
        <time>2012-12-22T08:13:47Z</time>
      </trkpt>
      <trkpt lat="42.898397" lon="-0.724906">
        <ele>1804.1</ele>
        <time>2012-12-22T08:14:10Z</time>
      </trkpt>
      <trkpt lat="42.898434" lon="-0.725061">
        <ele>1807.4</ele>
        <time>2012-12-22T08:14:32Z</time>
      </trkpt>
      <trkpt lat="42.898468" lon="-0.725130">
        <ele>1810.3</ele>
        <time>2012-12-22T08:14:50Z</time>
      </trkpt>
      <trkpt lat="42.898474" lon="-0.725244">
        <ele>1813.7</ele>
        <time>2012-12-22T08:15:11Z</time>
      </trkpt>
      <trkpt lat="42.898461" lon="-0.725325">
        <ele>1816.1</ele>
        <time>2012-12-22T08:15:30Z</time>
      </trkpt>
      <trkpt lat="42.898471" lon="-0.725436">
        <ele>1821.3</ele>
        <time>2012-12-22T08:16:00Z</time>
      </trkpt>
      <trkpt lat="42.898468" lon="-0.725553">
        <ele>1824.2</ele>
        <time>2012-12-22T08:16:17Z</time>
      </trkpt>
      <trkpt lat="42.898455" lon="-0.725664">
        <ele>1828.1</ele>
        <time>2012-12-22T08:16:43Z</time>
      </trkpt>
      <trkpt lat="42.898453" lon="-0.725796">
        <ele>1832.9</ele>
        <time>2012-12-22T08:17:10Z</time>
      </trkpt>
      <trkpt lat="42.898476" lon="-0.725916">
        <ele>1836.7</ele>
        <time>2012-12-22T08:17:35Z</time>
      </trkpt>
      <trkpt lat="42.898527" lon="-0.726031">
        <ele>1839.6</ele>
        <time>2012-12-22T08:17:56Z</time>
      </trkpt>
      <trkpt lat="42.898550" lon="-0.726118">
        <ele>1843.5</ele>
        <time>2012-12-22T08:18:18Z</time>
      </trkpt>
      <trkpt lat="42.898555" lon="-0.726128">
        <ele>1848.8</ele>
        <time>2012-12-22T08:18:56Z</time>
      </trkpt>
      <trkpt lat="42.898575" lon="-0.726233">
        <ele>1852.6</ele>
        <time>2012-12-22T08:19:22Z</time>
      </trkpt>
      <trkpt lat="42.898604" lon="-0.726347">
        <ele>1856.9</ele>
        <time>2012-12-22T08:19:53Z</time>
      </trkpt>
      <trkpt lat="42.898631" lon="-0.726448">
        <ele>1860.8</ele>
        <time>2012-12-22T08:20:21Z</time>
      </trkpt>
      <trkpt lat="42.898616" lon="-0.726535">
        <ele>1866.1</ele>
        <time>2012-12-22T08:20:56Z</time>
      </trkpt>
      <trkpt lat="42.898611" lon="-0.726650">
        <ele>1871.3</ele>
        <time>2012-12-22T08:21:27Z</time>
      </trkpt>
      <trkpt lat="42.898627" lon="-0.726737">
        <ele>1874.2</ele>
        <time>2012-12-22T08:21:45Z</time>
      </trkpt>
      <trkpt lat="42.898613" lon="-0.726823">
        <ele>1879.5</ele>
        <time>2012-12-22T08:22:13Z</time>
      </trkpt>
      <trkpt lat="42.898652" lon="-0.726881">
        <ele>1882.9</ele>
        <time>2012-12-22T08:24:01Z</time>
      </trkpt>
      <trkpt lat="42.898674" lon="-0.727028">
        <ele>1886.7</ele>
        <time>2012-12-22T08:24:29Z</time>
      </trkpt>
      <trkpt lat="42.898624" lon="-0.727091">
        <ele>1889.6</ele>
        <time>2012-12-22T08:24:53Z</time>
      </trkpt>
      <trkpt lat="42.898589" lon="-0.727193">
        <ele>1895.4</ele>
        <time>2012-12-22T08:25:28Z</time>
      </trkpt>
      <trkpt lat="42.898645" lon="-0.727218">
        <ele>1896.8</ele>
        <time>2012-12-22T08:26:02Z</time>
      </trkpt>
      <trkpt lat="42.898629" lon="-0.727162">
        <ele>1897.3</ele>
        <time>2012-12-22T08:29:18Z</time>
      </trkpt>
      <trkpt lat="42.898641" lon="-0.727304">
        <ele>1898.7</ele>
        <time>2012-12-22T08:29:54Z</time>
      </trkpt>
      <trkpt lat="42.898623" lon="-0.727333">
        <ele>1902.1</ele>
        <time>2012-12-22T08:30:11Z</time>
      </trkpt>
      <trkpt lat="42.898616" lon="-0.727450">
        <ele>1905.5</ele>
        <time>2012-12-22T08:30:28Z</time>
      </trkpt>
      <trkpt lat="42.898613" lon="-0.727559">
        <ele>1908.3</ele>
        <time>2012-12-22T08:30:45Z</time>
      </trkpt>
      <trkpt lat="42.898556" lon="-0.727557">
        <ele>1911.7</ele>
        <time>2012-12-22T08:31:02Z</time>
      </trkpt>
      <trkpt lat="42.898551" lon="-0.727646">
        <ele>1917.0</ele>
        <time>2012-12-22T08:31:25Z</time>
      </trkpt>
      <trkpt lat="42.898596" lon="-0.727891">
        <ele>1926.6</ele>
        <time>2012-12-22T08:32:25Z</time>
      </trkpt>
      <trkpt lat="42.898664" lon="-0.728091">
        <ele>1931.4</ele>
        <time>2012-12-22T08:32:46Z</time>
      </trkpt>
      <trkpt lat="42.898753" lon="-0.728289">
        <ele>1934.3</ele>
        <time>2012-12-22T08:33:02Z</time>
      </trkpt>
      <trkpt lat="42.898738" lon="-0.728475">
        <ele>1937.7</ele>
        <time>2012-12-22T08:33:17Z</time>
      </trkpt>
      <trkpt lat="42.898710" lon="-0.728598">
        <ele>1941.5</ele>
        <time>2012-12-22T08:33:36Z</time>
      </trkpt>
      <trkpt lat="42.898690" lon="-0.728723">
        <ele>1945.8</ele>
        <time>2012-12-22T08:34:00Z</time>
      </trkpt>
      <trkpt lat="42.898636" lon="-0.728836">
        <ele>1948.2</ele>
        <time>2012-12-22T08:34:18Z</time>
      </trkpt>
      <trkpt lat="42.898613" lon="-0.729018">
        <ele>1953.1</ele>
        <time>2012-12-22T08:34:39Z</time>
      </trkpt>
      <trkpt lat="42.898644" lon="-0.729167">
        <ele>1954.5</ele>
        <time>2012-12-22T08:34:56Z</time>
      </trkpt>
      <trkpt lat="42.898688" lon="-0.729293">
        <ele>1955.9</ele>
        <time>2012-12-22T08:35:09Z</time>
      </trkpt>
      <trkpt lat="42.898717" lon="-0.729433">
        <ele>1960.3</ele>
        <time>2012-12-22T08:35:27Z</time>
      </trkpt>
      <trkpt lat="42.898748" lon="-0.729574">
        <ele>1962.7</ele>
        <time>2012-12-22T08:35:40Z</time>
      </trkpt>
      <trkpt lat="42.898742" lon="-0.729723">
        <ele>1967.0</ele>
        <time>2012-12-22T08:35:58Z</time>
      </trkpt>
      <trkpt lat="42.898626" lon="-0.729803">
        <ele>1970.4</ele>
        <time>2012-12-22T08:38:26Z</time>
      </trkpt>
      <trkpt lat="42.898650" lon="-0.729906">
        <ele>1974.2</ele>
        <time>2012-12-22T08:38:44Z</time>
      </trkpt>
      <trkpt lat="42.898639" lon="-0.729935">
        <ele>1980.0</ele>
        <time>2012-12-22T08:39:06Z</time>
      </trkpt>
      <trkpt lat="42.898594" lon="-0.730018">
        <ele>1983.8</ele>
        <time>2012-12-22T08:39:25Z</time>
      </trkpt>
      <trkpt lat="42.898583" lon="-0.730123">
        <ele>1988.6</ele>
        <time>2012-12-22T08:39:44Z</time>
      </trkpt>
      <trkpt lat="42.898539" lon="-0.730270">
        <ele>1994.9</ele>
        <time>2012-12-22T08:40:14Z</time>
      </trkpt>
      <trkpt lat="42.898556" lon="-0.730410">
        <ele>1998.7</ele>
        <time>2012-12-22T08:40:32Z</time>
      </trkpt>
      <trkpt lat="42.898508" lon="-0.730490">
        <ele>2005.0</ele>
        <time>2012-12-22T08:40:57Z</time>
      </trkpt>
      <trkpt lat="42.898458" lon="-0.730556">
        <ele>2013.6</ele>
        <time>2012-12-22T08:42:35Z</time>
      </trkpt>
      <trkpt lat="42.898422" lon="-0.730676">
        <ele>2017.5</ele>
        <time>2012-12-22T08:42:48Z</time>
      </trkpt>
      <trkpt lat="42.898395" lon="-0.730784">
        <ele>2023.2</ele>
        <time>2012-12-22T08:43:04Z</time>
      </trkpt>
      <trkpt lat="42.898356" lon="-0.730913">
        <ele>2027.6</ele>
        <time>2012-12-22T08:43:20Z</time>
      </trkpt>
      <trkpt lat="42.898321" lon="-0.731019">
        <ele>2031.4</ele>
        <time>2012-12-22T08:43:38Z</time>
      </trkpt>
      <trkpt lat="42.898340" lon="-0.731152">
        <ele>2033.8</ele>
        <time>2012-12-22T08:44:39Z</time>
      </trkpt>
      <trkpt lat="42.898305" lon="-0.731208">
        <ele>2127.5</ele>
        <time>2012-12-22T08:45:05Z</time>
      </trkpt>
      <trkpt lat="42.898254" lon="-0.731236">
        <ele>2041.0</ele>
        <time>2012-12-22T08:58:33Z</time>
      </trkpt>
      <trkpt lat="42.898246" lon="-0.731381">
        <ele>2041.0</ele>
        <time>2012-12-22T09:00:03Z</time>
      </trkpt>
      <trkpt lat="42.898202" lon="-0.731499">
        <ele>2044.9</ele>
        <time>2012-12-22T09:00:18Z</time>
      </trkpt>
      <trkpt lat="42.898113" lon="-0.731597">
        <ele>2048.2</ele>
        <time>2012-12-22T09:00:33Z</time>
      </trkpt>
      <trkpt lat="42.898124" lon="-0.731746">
        <ele>2051.1</ele>
        <time>2012-12-22T09:00:52Z</time>
      </trkpt>
      <trkpt lat="42.898116" lon="-0.731890">
        <ele>2056.9</ele>
        <time>2012-12-22T09:01:18Z</time>
      </trkpt>
      <trkpt lat="42.898097" lon="-0.731993">
        <ele>2062.2</ele>
        <time>2012-12-22T09:01:52Z</time>
      </trkpt>
      <trkpt lat="42.898069" lon="-0.732126">
        <ele>2067.4</ele>
        <time>2012-12-22T09:02:17Z</time>
      </trkpt>
      <trkpt lat="42.898097" lon="-0.732225">
        <ele>2071.3</ele>
        <time>2012-12-22T09:02:39Z</time>
      </trkpt>
      <trkpt lat="42.898143" lon="-0.732334">
        <ele>2073.2</ele>
        <time>2012-12-22T09:02:57Z</time>
      </trkpt>
      <trkpt lat="42.898207" lon="-0.732472">
        <ele>2072.7</ele>
        <time>2012-12-22T09:03:13Z</time>
      </trkpt>
      <trkpt lat="42.898268" lon="-0.732602">
        <ele>2075.1</ele>
        <time>2012-12-22T09:03:27Z</time>
      </trkpt>
      <trkpt lat="42.898334" lon="-0.732675">
        <ele>2079.9</ele>
        <time>2012-12-22T09:03:42Z</time>
      </trkpt>
      <trkpt lat="42.898394" lon="-0.732765">
        <ele>2083.8</ele>
        <time>2012-12-22T09:03:57Z</time>
        <name>Col de Petrageme</name>
      </trkpt>
      <trkpt lat="42.898427" lon="-0.732898">
        <ele>2082.4</ele>
        <time>2012-12-22T09:04:13Z</time>
      </trkpt>
      <trkpt lat="42.898531" lon="-0.732978">
        <ele>2083.8</ele>
        <time>2012-12-22T09:04:28Z</time>
      </trkpt>
      <trkpt lat="42.898593" lon="-0.733010">
        <ele>2089.1</ele>
        <time>2012-12-22T09:04:56Z</time>
      </trkpt>
      <trkpt lat="42.898665" lon="-0.733069">
        <ele>2088.1</ele>
        <time>2012-12-22T09:08:18Z</time>
      </trkpt>
      <trkpt lat="42.898741" lon="-0.733083">
        <ele>2093.4</ele>
        <time>2012-12-22T09:08:31Z</time>
      </trkpt>
      <trkpt lat="42.898824" lon="-0.733024">
        <ele>2099.2</ele>
        <time>2012-12-22T09:08:55Z</time>
      </trkpt>
      <trkpt lat="42.898912" lon="-0.732982">
        <ele>2101.6</ele>
        <time>2012-12-22T09:09:13Z</time>
      </trkpt>
      <trkpt lat="42.899004" lon="-0.732936">
        <ele>2102.1</ele>
        <time>2012-12-22T09:09:33Z</time>
      </trkpt>
      <trkpt lat="42.899071" lon="-0.732909">
        <ele>2107.4</ele>
        <time>2012-12-22T09:09:54Z</time>
      </trkpt>
      <trkpt lat="42.899149" lon="-0.732881">
        <ele>2110.2</ele>
        <time>2012-12-22T09:10:17Z</time>
      </trkpt>
      <trkpt lat="42.899235" lon="-0.732869">
        <ele>2112.1</ele>
        <time>2012-12-22T09:10:36Z</time>
      </trkpt>
      <trkpt lat="42.899304" lon="-0.732845">
        <ele>2116.0</ele>
        <time>2012-12-22T09:10:55Z</time>
      </trkpt>
      <trkpt lat="42.899392" lon="-0.732832">
        <ele>2119.4</ele>
        <time>2012-12-22T09:11:18Z</time>
      </trkpt>
      <trkpt lat="42.899442" lon="-0.732810">
        <ele>2126.6</ele>
        <time>2012-12-22T09:12:05Z</time>
      </trkpt>
      <trkpt lat="42.899492" lon="-0.732695">
        <ele>2131.4</ele>
        <time>2012-12-22T09:12:26Z</time>
      </trkpt>
      <trkpt lat="42.899513" lon="-0.732549">
        <ele>2135.7</ele>
        <time>2012-12-22T09:12:47Z</time>
      </trkpt>
      <trkpt lat="42.899457" lon="-0.732411">
        <ele>2139.1</ele>
        <time>2012-12-22T09:13:07Z</time>
      </trkpt>
      <trkpt lat="42.899463" lon="-0.732306">
        <ele>2143.9</ele>
        <time>2012-12-22T09:13:35Z</time>
      </trkpt>
      <trkpt lat="42.899495" lon="-0.732186">
        <ele>2149.2</ele>
        <time>2012-12-22T09:14:25Z</time>
      </trkpt>
      <trkpt lat="42.899505" lon="-0.732098">
        <ele>2152.1</ele>
        <time>2012-12-22T09:15:13Z</time>
      </trkpt>
      <trkpt lat="42.899518" lon="-0.731976">
        <ele>2155.9</ele>
        <time>2012-12-22T09:15:32Z</time>
      </trkpt>
      <trkpt lat="42.899549" lon="-0.731883">
        <ele>2158.3</ele>
        <time>2012-12-22T09:15:52Z</time>
      </trkpt>
      <trkpt lat="42.899571" lon="-0.731834">
        <ele>2163.1</ele>
        <time>2012-12-22T09:16:19Z</time>
      </trkpt>
      <trkpt lat="42.899657" lon="-0.731786">
        <ele>2165.5</ele>
        <time>2012-12-22T09:16:45Z</time>
      </trkpt>
      <trkpt lat="42.899693" lon="-0.731744">
        <ele>2167.4</ele>
        <time>2012-12-22T09:17:53Z</time>
      </trkpt>
      <trkpt lat="42.899719" lon="-0.731819">
        <ele>2167.9</ele>
        <time>2012-12-22T09:22:04Z</time>
      </trkpt>
      <trkpt lat="42.899798" lon="-0.731860">
        <ele>2169.8</ele>
        <time>2012-12-22T09:22:23Z</time>
      </trkpt>
      <trkpt lat="42.899885" lon="-0.731902">
        <ele>2171.8</ele>
        <time>2012-12-22T09:22:39Z</time>
      </trkpt>
      <trkpt lat="42.899977" lon="-0.731920">
        <ele>2175.6</ele>
        <time>2012-12-22T09:23:00Z</time>
      </trkpt>
      <trkpt lat="42.900051" lon="-0.731996">
        <ele>2177.5</ele>
        <time>2012-12-22T09:23:22Z</time>
      </trkpt>
      <trkpt lat="42.900123" lon="-0.732040">
        <ele>2179.9</ele>
        <time>2012-12-22T09:23:42Z</time>
      </trkpt>
      <trkpt lat="42.900207" lon="-0.732029">
        <ele>2185.2</ele>
        <time>2012-12-22T09:24:01Z</time>
      </trkpt>
      <trkpt lat="42.900258" lon="-0.732119">
        <ele>2190.0</ele>
        <time>2012-12-22T09:24:21Z</time>
      </trkpt>
      <trkpt lat="42.900336" lon="-0.732115">
        <ele>2195.3</ele>
        <time>2012-12-22T09:24:41Z</time>
      </trkpt>
      <trkpt lat="42.900409" lon="-0.732071">
        <ele>2200.1</ele>
        <time>2012-12-22T09:25:10Z</time>
      </trkpt>
      <trkpt lat="42.900487" lon="-0.732053">
        <ele>2202.0</ele>
        <time>2012-12-22T09:25:37Z</time>
      </trkpt>
      <trkpt lat="42.900552" lon="-0.732143">
        <ele>2204.4</ele>
        <time>2012-12-22T09:25:54Z</time>
      </trkpt>
      <trkpt lat="42.900611" lon="-0.732214">
        <ele>2208.3</ele>
        <time>2012-12-22T09:26:13Z</time>
      </trkpt>
      <trkpt lat="42.900693" lon="-0.732210">
        <ele>2211.6</ele>
        <time>2012-12-22T09:26:34Z</time>
      </trkpt>
      <trkpt lat="42.900762" lon="-0.732146">
        <ele>2217.9</ele>
        <time>2012-12-22T09:26:58Z</time>
      </trkpt>
      <trkpt lat="42.900829" lon="-0.732095">
        <ele>2223.7</ele>
        <time>2012-12-22T09:27:33Z</time>
      </trkpt>
      <trkpt lat="42.900923" lon="-0.732004">
        <ele>2228.9</ele>
        <time>2012-12-22T09:28:09Z</time>
      </trkpt>
      <trkpt lat="42.900982" lon="-0.732075">
        <ele>2231.4</ele>
        <time>2012-12-22T09:28:26Z</time>
      </trkpt>
      <trkpt lat="42.901028" lon="-0.732022">
        <ele>2237.1</ele>
        <time>2012-12-22T09:29:19Z</time>
      </trkpt>
      <trkpt lat="42.901116" lon="-0.732040">
        <ele>2241.0</ele>
        <time>2012-12-22T09:29:41Z</time>
      </trkpt>
      <trkpt lat="42.901208" lon="-0.732082">
        <ele>2245.8</ele>
        <time>2012-12-22T09:30:03Z</time>
      </trkpt>
      <trkpt lat="42.901272" lon="-0.731998">
        <ele>2250.6</ele>
        <time>2012-12-22T09:30:23Z</time>
      </trkpt>
      <trkpt lat="42.901330" lon="-0.732071">
        <ele>2252.5</ele>
        <time>2012-12-22T09:30:46Z</time>
      </trkpt>
      <trkpt lat="42.901403" lon="-0.732129">
        <ele>2256.4</ele>
        <time>2012-12-22T09:31:03Z</time>
      </trkpt>
      <trkpt lat="42.901434" lon="-0.732170">
        <ele>2255.4</ele>
        <time>2012-12-22T09:33:02Z</time>
      </trkpt>
      <trkpt lat="42.901496" lon="-0.732259">
        <ele>2258.3</ele>
        <time>2012-12-22T09:33:17Z</time>
      </trkpt>
      <trkpt lat="42.901569" lon="-0.732322">
        <ele>2261.2</ele>
        <time>2012-12-22T09:33:37Z</time>
      </trkpt>
      <trkpt lat="42.901636" lon="-0.732382">
        <ele>2263.6</ele>
        <time>2012-12-22T09:33:55Z</time>
      </trkpt>
      <trkpt lat="42.901706" lon="-0.732399">
        <ele>2266.9</ele>
        <time>2012-12-22T09:34:12Z</time>
      </trkpt>
      <trkpt lat="42.901734" lon="-0.732330">
        <ele>2271.2</ele>
        <time>2012-12-22T09:34:48Z</time>
      </trkpt>
      <trkpt lat="42.901793" lon="-0.732253">
        <ele>2278.0</ele>
        <time>2012-12-22T09:35:21Z</time>
      </trkpt>
      <trkpt lat="42.901859" lon="-0.732303">
        <ele>2280.4</ele>
        <time>2012-12-22T09:35:52Z</time>
      </trkpt>
      <trkpt lat="42.901932" lon="-0.732231">
        <ele>2288.1</ele>
        <time>2012-12-22T09:36:42Z</time>
      </trkpt>
      <trkpt lat="42.901978" lon="-0.732266">
        <ele>2292.4</ele>
        <time>2012-12-22T09:38:59Z</time>
      </trkpt>
      <trkpt lat="42.902073" lon="-0.732353">
        <ele>2297.2</ele>
        <time>2012-12-22T09:39:28Z</time>
      </trkpt>
      <trkpt lat="42.902163" lon="-0.732421">
        <ele>2303.5</ele>
        <time>2012-12-22T09:40:08Z</time>
      </trkpt>
      <trkpt lat="42.902237" lon="-0.732475">
        <ele>2311.1</ele>
        <time>2012-12-22T09:40:37Z</time>
      </trkpt>
      <trkpt lat="42.902321" lon="-0.732475">
        <ele>2317.9</ele>
        <time>2012-12-22T09:41:20Z</time>
      </trkpt>
      <trkpt lat="42.902448" lon="-0.732571">
        <ele>2326.1</ele>
        <time>2012-12-22T09:42:12Z</time>
      </trkpt>
      <trkpt lat="42.902535" lon="-0.732598">
        <ele>2335.2</ele>
        <time>2012-12-22T09:42:50Z</time>
      </trkpt>
      <trkpt lat="42.902589" lon="-0.732532">
        <ele>2337.1</ele>
        <time>2012-12-22T09:43:34Z</time>
      </trkpt>
      <trkpt lat="42.902657" lon="-0.732611">
        <ele>2340.5</ele>
        <time>2012-12-22T09:43:56Z</time>
      </trkpt>
      <trkpt lat="42.902733" lon="-0.732694">
        <ele>2344.8</ele>
        <time>2012-12-22T09:45:19Z</time>
      </trkpt>
      <trkpt lat="42.902817" lon="-0.732755">
        <ele>2349.1</ele>
        <time>2012-12-22T09:45:42Z</time>
      </trkpt>
      <trkpt lat="42.902898" lon="-0.732799">
        <ele>2351.5</ele>
        <time>2012-12-22T09:46:04Z</time>
      </trkpt>
      <trkpt lat="42.902922" lon="-0.732691">
        <ele>2357.8</ele>
        <time>2012-12-22T09:46:36Z</time>
      </trkpt>
      <trkpt lat="42.903005" lon="-0.732633">
        <ele>2363.1</ele>
        <time>2012-12-22T09:54:37Z</time>
        <name>Pic d Ansabere</name>
      </trkpt>
      <trkpt lat="42.902988" lon="-0.732579">
        <ele>2361.6</ele>
        <time>2012-12-22T09:55:17Z</time>
      </trkpt>
      <trkpt lat="42.902980" lon="-0.732595">
        <ele>2362.1</ele>
        <time>2012-12-22T10:01:48Z</time>
      </trkpt>
      <trkpt lat="42.902977" lon="-0.732675">
        <ele>2366.4</ele>
        <time>2012-12-22T10:06:31Z</time>
      </trkpt>
      <trkpt lat="42.902968" lon="-0.732796">
        <ele>2361.1</ele>
        <time>2012-12-22T10:06:48Z</time>
      </trkpt>
      <trkpt lat="42.902995" lon="-0.732924">
        <ele>2356.8</ele>
        <time>2012-12-22T10:06:58Z</time>
      </trkpt>
      <trkpt lat="42.903016" lon="-0.733055">
        <ele>2355.4</ele>
        <time>2012-12-22T10:07:09Z</time>
      </trkpt>
      <trkpt lat="42.903038" lon="-0.733190">
        <ele>2354.4</ele>
        <time>2012-12-22T10:07:20Z</time>
      </trkpt>
      <trkpt lat="42.902983" lon="-0.733144">
        <ele>2353.4</ele>
        <time>2012-12-22T10:07:46Z</time>
      </trkpt>
      <trkpt lat="42.902927" lon="-0.733019">
        <ele>2352.0</ele>
        <time>2012-12-22T10:07:58Z</time>
      </trkpt>
      <trkpt lat="42.902872" lon="-0.732920">
        <ele>2351.0</ele>
        <time>2012-12-22T10:08:10Z</time>
      </trkpt>
      <trkpt lat="42.902790" lon="-0.732852">
        <ele>2347.2</ele>
        <time>2012-12-22T10:08:26Z</time>
      </trkpt>
      <trkpt lat="42.902707" lon="-0.732790">
        <ele>2343.4</ele>
        <time>2012-12-22T10:08:48Z</time>
      </trkpt>
      <trkpt lat="42.902642" lon="-0.732697">
        <ele>2341.4</ele>
        <time>2012-12-22T10:09:15Z</time>
      </trkpt>
      <trkpt lat="42.902581" lon="-0.732621">
        <ele>2338.1</ele>
        <time>2012-12-22T10:09:42Z</time>
      </trkpt>
      <trkpt lat="42.902512" lon="-0.732546">
        <ele>2335.7</ele>
        <time>2012-12-22T10:10:02Z</time>
      </trkpt>
      <trkpt lat="42.902425" lon="-0.732508">
        <ele>2328.9</ele>
        <time>2012-12-22T10:10:28Z</time>
      </trkpt>
      <trkpt lat="42.902357" lon="-0.732471">
        <ele>2325.1</ele>
        <time>2012-12-22T10:10:54Z</time>
      </trkpt>
      <trkpt lat="42.902262" lon="-0.732451">
        <ele>2313.6</ele>
        <time>2012-12-22T10:11:58Z</time>
      </trkpt>
      <trkpt lat="42.902196" lon="-0.732534">
        <ele>2307.3</ele>
        <time>2012-12-22T10:12:18Z</time>
      </trkpt>
      <trkpt lat="42.902174" lon="-0.732493">
        <ele>2305.9</ele>
        <time>2012-12-22T10:12:34Z</time>
      </trkpt>
      <trkpt lat="42.902075" lon="-0.732452">
        <ele>2296.7</ele>
        <time>2012-12-22T10:12:44Z</time>
      </trkpt>
      <trkpt lat="42.901980" lon="-0.732392">
        <ele>2290.0</ele>
        <time>2012-12-22T10:12:53Z</time>
      </trkpt>
      <trkpt lat="42.901883" lon="-0.732377">
        <ele>2281.8</ele>
        <time>2012-12-22T10:13:04Z</time>
      </trkpt>
      <trkpt lat="42.901782" lon="-0.732357">
        <ele>2275.1</ele>
        <time>2012-12-22T10:13:14Z</time>
      </trkpt>
      <trkpt lat="42.901673" lon="-0.732335">
        <ele>2268.9</ele>
        <time>2012-12-22T10:13:23Z</time>
      </trkpt>
      <trkpt lat="42.901607" lon="-0.732326">
        <ele>2264.5</ele>
        <time>2012-12-22T10:13:55Z</time>
      </trkpt>
      <trkpt lat="42.901547" lon="-0.732230">
        <ele>2264.5</ele>
        <time>2012-12-22T10:16:14Z</time>
      </trkpt>
      <trkpt lat="42.901470" lon="-0.732143">
        <ele>2261.2</ele>
        <time>2012-12-22T10:16:21Z</time>
      </trkpt>
      <trkpt lat="42.901445" lon="-0.732016">
        <ele>2261.2</ele>
        <time>2012-12-22T10:16:31Z</time>
      </trkpt>
      <trkpt lat="42.901422" lon="-0.731893">
        <ele>2262.1</ele>
        <time>2012-12-22T10:16:43Z</time>
      </trkpt>
      <trkpt lat="42.901382" lon="-0.731877">
        <ele>2260.2</ele>
        <time>2012-12-22T10:22:30Z</time>
      </trkpt>
      <trkpt lat="42.901316" lon="-0.731940">
        <ele>2257.8</ele>
        <time>2012-12-22T10:23:12Z</time>
      </trkpt>
      <trkpt lat="42.901248" lon="-0.731969">
        <ele>2254.4</ele>
        <time>2012-12-22T10:23:24Z</time>
      </trkpt>
      <trkpt lat="42.901162" lon="-0.732021">
        <ele>2245.8</ele>
        <time>2012-12-22T10:23:39Z</time>
      </trkpt>
      <trkpt lat="42.901073" lon="-0.732056">
        <ele>2240.5</ele>
        <time>2012-12-22T10:23:52Z</time>
      </trkpt>
      <trkpt lat="42.900982" lon="-0.732064">
        <ele>2234.7</ele>
        <time>2012-12-22T10:24:04Z</time>
      </trkpt>
      <trkpt lat="42.900902" lon="-0.732088">
        <ele>2228.0</ele>
        <time>2012-12-22T10:24:18Z</time>
      </trkpt>
      <trkpt lat="42.900816" lon="-0.732092">
        <ele>2223.2</ele>
        <time>2012-12-22T10:24:29Z</time>
      </trkpt>
      <trkpt lat="42.900730" lon="-0.732099">
        <ele>2217.9</ele>
        <time>2012-12-22T10:24:40Z</time>
      </trkpt>
      <trkpt lat="42.900641" lon="-0.732106">
        <ele>2214.5</ele>
        <time>2012-12-22T10:24:52Z</time>
      </trkpt>
      <trkpt lat="42.900539" lon="-0.732092">
        <ele>2208.3</ele>
        <time>2012-12-22T10:25:04Z</time>
      </trkpt>
      <trkpt lat="42.900450" lon="-0.732031">
        <ele>2204.4</ele>
        <time>2012-12-22T10:25:15Z</time>
      </trkpt>
      <trkpt lat="42.900362" lon="-0.732044">
        <ele>2199.6</ele>
        <time>2012-12-22T10:25:25Z</time>
      </trkpt>
      <trkpt lat="42.900284" lon="-0.732089">
        <ele>2196.3</ele>
        <time>2012-12-22T10:25:34Z</time>
      </trkpt>
      <trkpt lat="42.900190" lon="-0.732052">
        <ele>2189.5</ele>
        <time>2012-12-22T10:25:42Z</time>
      </trkpt>
      <trkpt lat="42.900110" lon="-0.731997">
        <ele>2182.3</ele>
        <time>2012-12-22T10:25:53Z</time>
      </trkpt>
      <trkpt lat="42.900027" lon="-0.731941">
        <ele>2179.0</ele>
        <time>2012-12-22T10:26:04Z</time>
      </trkpt>
      <trkpt lat="42.899935" lon="-0.731904">
        <ele>2174.6</ele>
        <time>2012-12-22T10:26:26Z</time>
      </trkpt>
      <trkpt lat="42.899867" lon="-0.731879">
        <ele>2175.1</ele>
        <time>2012-12-22T10:29:32Z</time>
      </trkpt>
      <trkpt lat="42.899856" lon="-0.732019">
        <ele>2170.3</ele>
        <time>2012-12-22T10:29:56Z</time>
      </trkpt>
      <trkpt lat="42.899833" lon="-0.732136">
        <ele>2165.5</ele>
        <time>2012-12-22T10:30:06Z</time>
      </trkpt>
      <trkpt lat="42.899757" lon="-0.732208">
        <ele>2160.2</ele>
        <time>2012-12-22T10:30:15Z</time>
      </trkpt>
      <trkpt lat="42.899707" lon="-0.732316">
        <ele>2155.4</ele>
        <time>2012-12-22T10:30:26Z</time>
      </trkpt>
      <trkpt lat="42.899676" lon="-0.732450">
        <ele>2153.0</ele>
        <time>2012-12-22T10:30:34Z</time>
      </trkpt>
      <trkpt lat="42.899634" lon="-0.732559">
        <ele>2148.2</ele>
        <time>2012-12-22T10:30:42Z</time>
      </trkpt>
      <trkpt lat="42.899606" lon="-0.732681">
        <ele>2144.4</ele>
        <time>2012-12-22T10:30:50Z</time>
      </trkpt>
      <trkpt lat="42.899540" lon="-0.732755">
        <ele>2140.5</ele>
        <time>2012-12-22T10:30:58Z</time>
      </trkpt>
      <trkpt lat="42.899444" lon="-0.732759">
        <ele>2134.7</ele>
        <time>2012-12-22T10:31:10Z</time>
      </trkpt>
      <trkpt lat="42.899350" lon="-0.732769">
        <ele>2129.0</ele>
        <time>2012-12-22T10:31:18Z</time>
      </trkpt>
      <trkpt lat="42.899314" lon="-0.732805">
        <ele>2125.6</ele>
        <time>2012-12-22T10:31:40Z</time>
      </trkpt>
      <trkpt lat="42.899226" lon="-0.732842">
        <ele>2120.3</ele>
        <time>2012-12-22T10:31:51Z</time>
      </trkpt>
      <trkpt lat="42.899138" lon="-0.732849">
        <ele>2116.5</ele>
        <time>2012-12-22T10:32:04Z</time>
      </trkpt>
      <trkpt lat="42.899034" lon="-0.732845">
        <ele>2112.1</ele>
        <time>2012-12-22T10:34:05Z</time>
      </trkpt>
      <trkpt lat="42.898948" lon="-0.732861">
        <ele>2109.8</ele>
        <time>2012-12-22T10:34:19Z</time>
      </trkpt>
      <trkpt lat="42.898851" lon="-0.732918">
        <ele>2106.9</ele>
        <time>2012-12-22T10:34:29Z</time>
      </trkpt>
      <trkpt lat="42.898774" lon="-0.732990">
        <ele>2104.0</ele>
        <time>2012-12-22T10:34:41Z</time>
      </trkpt>
      <trkpt lat="42.898692" lon="-0.733039">
        <ele>2099.2</ele>
        <time>2012-12-22T10:34:59Z</time>
      </trkpt>
      <trkpt lat="42.898602" lon="-0.733074">
        <ele>2094.9</ele>
        <time>2012-12-22T10:35:09Z</time>
      </trkpt>
      <trkpt lat="42.898538" lon="-0.733009">
        <ele>2094.4</ele>
        <time>2012-12-22T10:35:17Z</time>
      </trkpt>
      <trkpt lat="42.898462" lon="-0.732940">
        <ele>2094.9</ele>
        <time>2012-12-22T10:35:26Z</time>
      </trkpt>
      <trkpt lat="42.898401" lon="-0.732896">
        <ele>2092.0</ele>
        <time>2012-12-22T10:35:55Z</time>
      </trkpt>
      <trkpt lat="42.898324" lon="-0.732791">
        <ele>2088.6</ele>
        <time>2012-12-22T10:36:05Z</time>
      </trkpt>
      <trkpt lat="42.898268" lon="-0.732702">
        <ele>2085.7</ele>
        <time>2012-12-22T10:37:16Z</time>
      </trkpt>
      <trkpt lat="42.898283" lon="-0.732575">
        <ele>2082.4</ele>
        <time>2012-12-22T10:37:27Z</time>
      </trkpt>
      <trkpt lat="42.898297" lon="-0.732448">
        <ele>2079.5</ele>
        <time>2012-12-22T10:37:37Z</time>
      </trkpt>
      <trkpt lat="42.898321" lon="-0.732319">
        <ele>2075.6</ele>
        <time>2012-12-22T10:37:49Z</time>
      </trkpt>
      <trkpt lat="42.898334" lon="-0.732190">
        <ele>2070.8</ele>
        <time>2012-12-22T10:38:01Z</time>
      </trkpt>
      <trkpt lat="42.898395" lon="-0.732115">
        <ele>2066.0</ele>
        <time>2012-12-22T10:38:18Z</time>
      </trkpt>
      <trkpt lat="42.898434" lon="-0.732012">
        <ele>2059.8</ele>
        <time>2012-12-22T10:38:30Z</time>
      </trkpt>
      <trkpt lat="42.898468" lon="-0.731873">
        <ele>2054.5</ele>
        <time>2012-12-22T10:38:39Z</time>
      </trkpt>
      <trkpt lat="42.898481" lon="-0.731764">
        <ele>2048.7</ele>
        <time>2012-12-22T10:39:04Z</time>
      </trkpt>
      <trkpt lat="42.898463" lon="-0.731643">
        <ele>2043.4</ele>
        <time>2012-12-22T10:39:29Z</time>
      </trkpt>
      <trkpt lat="42.898488" lon="-0.731527">
        <ele>2041.0</ele>
        <time>2012-12-22T10:39:41Z</time>
      </trkpt>
      <trkpt lat="42.898504" lon="-0.731408">
        <ele>2042.9</ele>
        <time>2012-12-22T10:41:38Z</time>
      </trkpt>
      <trkpt lat="42.898550" lon="-0.731280">
        <ele>2039.1</ele>
        <time>2012-12-22T10:41:48Z</time>
      </trkpt>
      <trkpt lat="42.898580" lon="-0.731153">
        <ele>2036.7</ele>
        <time>2012-12-22T10:41:57Z</time>
      </trkpt>
      <trkpt lat="42.898622" lon="-0.731038">
        <ele>2033.8</ele>
        <time>2012-12-22T10:42:08Z</time>
      </trkpt>
      <trkpt lat="42.898648" lon="-0.730926">
        <ele>2028.0</ele>
        <time>2012-12-22T10:42:17Z</time>
      </trkpt>
      <trkpt lat="42.898694" lon="-0.730818">
        <ele>2021.8</ele>
        <time>2012-12-22T10:42:27Z</time>
      </trkpt>
      <trkpt lat="42.898747" lon="-0.730709">
        <ele>2016.0</ele>
        <time>2012-12-22T10:42:38Z</time>
      </trkpt>
      <trkpt lat="42.898778" lon="-0.730616">
        <ele>2011.2</ele>
        <time>2012-12-22T10:42:48Z</time>
      </trkpt>
      <trkpt lat="42.898824" lon="-0.730485">
        <ele>2005.9</ele>
        <time>2012-12-22T10:42:58Z</time>
      </trkpt>
      <trkpt lat="42.898852" lon="-0.730362">
        <ele>2000.2</ele>
        <time>2012-12-22T10:43:09Z</time>
      </trkpt>
      <trkpt lat="42.898859" lon="-0.730249">
        <ele>1993.9</ele>
        <time>2012-12-22T10:43:21Z</time>
      </trkpt>
      <trkpt lat="42.898870" lon="-0.730151">
        <ele>1989.6</ele>
        <time>2012-12-22T10:43:32Z</time>
      </trkpt>
      <trkpt lat="42.898866" lon="-0.730009">
        <ele>1984.8</ele>
        <time>2012-12-22T10:43:43Z</time>
      </trkpt>
      <trkpt lat="42.898874" lon="-0.729853">
        <ele>1980.0</ele>
        <time>2012-12-22T10:43:54Z</time>
      </trkpt>
      <trkpt lat="42.898890" lon="-0.729720">
        <ele>1976.1</ele>
        <time>2012-12-22T10:44:06Z</time>
      </trkpt>
      <trkpt lat="42.898804" lon="-0.729628">
        <ele>1972.8</ele>
        <time>2012-12-22T10:45:56Z</time>
      </trkpt>
      <trkpt lat="42.898808" lon="-0.729497">
        <ele>1969.4</ele>
        <time>2012-12-22T10:46:08Z</time>
      </trkpt>
      <trkpt lat="42.898908" lon="-0.729355">
        <ele>1964.6</ele>
        <time>2012-12-22T10:47:35Z</time>
      </trkpt>
      <trkpt lat="42.898805" lon="-0.729235">
        <ele>1960.8</ele>
        <time>2012-12-22T10:47:56Z</time>
      </trkpt>
      <trkpt lat="42.898724" lon="-0.729133">
        <ele>1957.9</ele>
        <time>2012-12-22T10:48:09Z</time>
      </trkpt>
      <trkpt lat="42.898680" lon="-0.729031">
        <ele>1955.9</ele>
        <time>2012-12-22T10:48:24Z</time>
      </trkpt>
      <trkpt lat="42.898620" lon="-0.728890">
        <ele>1955.0</ele>
        <time>2012-12-22T10:48:45Z</time>
      </trkpt>
      <trkpt lat="42.898632" lon="-0.728786">
        <ele>1952.1</ele>
        <time>2012-12-22T10:49:05Z</time>
      </trkpt>
      <trkpt lat="42.898683" lon="-0.728681">
        <ele>1947.8</ele>
        <time>2012-12-22T10:49:15Z</time>
      </trkpt>
      <trkpt lat="42.898720" lon="-0.728563">
        <ele>1944.4</ele>
        <time>2012-12-22T10:49:23Z</time>
      </trkpt>
      <trkpt lat="42.898751" lon="-0.728438">
        <ele>1939.1</ele>
        <time>2012-12-22T10:49:35Z</time>
      </trkpt>
      <trkpt lat="42.898793" lon="-0.728328">
        <ele>1936.2</ele>
        <time>2012-12-22T10:49:45Z</time>
      </trkpt>
      <trkpt lat="42.898737" lon="-0.728280">
        <ele>1932.4</ele>
        <time>2012-12-22T10:50:27Z</time>
      </trkpt>
      <trkpt lat="42.898743" lon="-0.728179">
        <ele>1929.5</ele>
        <time>2012-12-22T10:58:03Z</time>
      </trkpt>
      <trkpt lat="42.898715" lon="-0.728027">
        <ele>1924.2</ele>
        <time>2012-12-22T10:58:22Z</time>
      </trkpt>
      <trkpt lat="42.898697" lon="-0.727901">
        <ele>1921.8</ele>
        <time>2012-12-22T10:58:37Z</time>
      </trkpt>
      <trkpt lat="42.898650" lon="-0.727828">
        <ele>1918.9</ele>
        <time>2012-12-22T10:59:02Z</time>
      </trkpt>
      <trkpt lat="42.898630" lon="-0.727720">
        <ele>1915.1</ele>
        <time>2012-12-22T10:59:12Z</time>
      </trkpt>
      <trkpt lat="42.898655" lon="-0.727613">
        <ele>1910.3</ele>
        <time>2012-12-22T10:59:24Z</time>
      </trkpt>
      <trkpt lat="42.898664" lon="-0.727464">
        <ele>1906.9</ele>
        <time>2012-12-22T10:59:32Z</time>
      </trkpt>
      <trkpt lat="42.898658" lon="-0.727336">
        <ele>1903.6</ele>
        <time>2012-12-22T10:59:40Z</time>
      </trkpt>
      <trkpt lat="42.898661" lon="-0.727218">
        <ele>1899.7</ele>
        <time>2012-12-22T10:59:47Z</time>
      </trkpt>
      <trkpt lat="42.898628" lon="-0.727096">
        <ele>1895.9</ele>
        <time>2012-12-22T10:59:55Z</time>
      </trkpt>
      <trkpt lat="42.898625" lon="-0.726991">
        <ele>1891.1</ele>
        <time>2012-12-22T11:00:03Z</time>
      </trkpt>
      <trkpt lat="42.898601" lon="-0.726860">
        <ele>1885.8</ele>
        <time>2012-12-22T11:00:12Z</time>
      </trkpt>
      <trkpt lat="42.898587" lon="-0.726738">
        <ele>1881.0</ele>
        <time>2012-12-22T11:00:22Z</time>
      </trkpt>
      <trkpt lat="42.898595" lon="-0.726613">
        <ele>1874.7</ele>
        <time>2012-12-22T11:00:31Z</time>
      </trkpt>
      <trkpt lat="42.898591" lon="-0.726487">
        <ele>1869.9</ele>
        <time>2012-12-22T11:00:40Z</time>
      </trkpt>
      <trkpt lat="42.898567" lon="-0.726368">
        <ele>1864.6</ele>
        <time>2012-12-22T11:00:52Z</time>
      </trkpt>
      <trkpt lat="42.898575" lon="-0.726241">
        <ele>1859.8</ele>
        <time>2012-12-22T11:01:04Z</time>
      </trkpt>
      <trkpt lat="42.898582" lon="-0.726124">
        <ele>1854.5</ele>
        <time>2012-12-22T11:01:14Z</time>
      </trkpt>
      <trkpt lat="42.898549" lon="-0.725991">
        <ele>1847.8</ele>
        <time>2012-12-22T11:01:26Z</time>
      </trkpt>
      <trkpt lat="42.898522" lon="-0.725868">
        <ele>1842.5</ele>
        <time>2012-12-22T11:01:33Z</time>
      </trkpt>
      <trkpt lat="42.898505" lon="-0.725765">
        <ele>1835.8</ele>
        <time>2012-12-22T11:01:44Z</time>
      </trkpt>
      <trkpt lat="42.898487" lon="-0.725693">
        <ele>1832.4</ele>
        <time>2012-12-22T11:02:25Z</time>
      </trkpt>
      <trkpt lat="42.898467" lon="-0.725556">
        <ele>1829.1</ele>
        <time>2012-12-22T11:02:34Z</time>
      </trkpt>
      <trkpt lat="42.898474" lon="-0.725408">
        <ele>1824.7</ele>
        <time>2012-12-22T11:02:45Z</time>
      </trkpt>
      <trkpt lat="42.898482" lon="-0.725281">
        <ele>1818.9</ele>
        <time>2012-12-22T11:02:55Z</time>
      </trkpt>
      <trkpt lat="42.898467" lon="-0.725169">
        <ele>1815.6</ele>
        <time>2012-12-22T11:03:06Z</time>
      </trkpt>
      <trkpt lat="42.898458" lon="-0.725052">
        <ele>1811.3</ele>
        <time>2012-12-22T11:03:15Z</time>
      </trkpt>
      <trkpt lat="42.898421" lon="-0.724930">
        <ele>1808.4</ele>
        <time>2012-12-22T11:03:26Z</time>
      </trkpt>
      <trkpt lat="42.898399" lon="-0.724809">
        <ele>1803.6</ele>
        <time>2012-12-22T11:03:35Z</time>
      </trkpt>
      <trkpt lat="42.898402" lon="-0.724720">
        <ele>1801.7</ele>
        <time>2012-12-22T11:04:18Z</time>
      </trkpt>
      <trkpt lat="42.898378" lon="-0.724606">
        <ele>1798.8</ele>
        <time>2012-12-22T11:04:26Z</time>
      </trkpt>
      <trkpt lat="42.898372" lon="-0.724510">
        <ele>1794.4</ele>
        <time>2012-12-22T11:04:37Z</time>
      </trkpt>
      <trkpt lat="42.898355" lon="-0.724367">
        <ele>1789.6</ele>
        <time>2012-12-22T11:04:45Z</time>
      </trkpt>
      <trkpt lat="42.898339" lon="-0.724258">
        <ele>1785.3</ele>
        <time>2012-12-22T11:04:56Z</time>
      </trkpt>
      <trkpt lat="42.898323" lon="-0.724123">
        <ele>1781.0</ele>
        <time>2012-12-22T11:05:33Z</time>
      </trkpt>
      <trkpt lat="42.898304" lon="-0.724007">
        <ele>1776.7</ele>
        <time>2012-12-22T11:05:43Z</time>
      </trkpt>
      <trkpt lat="42.898290" lon="-0.723886">
        <ele>1773.3</ele>
        <time>2012-12-22T11:05:52Z</time>
      </trkpt>
      <trkpt lat="42.898278" lon="-0.723757">
        <ele>1769.0</ele>
        <time>2012-12-22T11:06:00Z</time>
      </trkpt>
      <trkpt lat="42.898259" lon="-0.723639">
        <ele>1765.1</ele>
        <time>2012-12-22T11:06:08Z</time>
      </trkpt>
      <trkpt lat="42.898259" lon="-0.723519">
        <ele>1761.8</ele>
        <time>2012-12-22T11:06:16Z</time>
      </trkpt>
      <trkpt lat="42.898243" lon="-0.723400">
        <ele>1758.4</ele>
        <time>2012-12-22T11:06:23Z</time>
      </trkpt>
      <trkpt lat="42.898235" lon="-0.723297">
        <ele>1754.5</ele>
        <time>2012-12-22T11:06:30Z</time>
      </trkpt>
      <trkpt lat="42.898229" lon="-0.723177">
        <ele>1749.7</ele>
        <time>2012-12-22T11:06:37Z</time>
      </trkpt>
      <trkpt lat="42.898203" lon="-0.723043">
        <ele>1744.9</ele>
        <time>2012-12-22T11:06:45Z</time>
      </trkpt>
      <trkpt lat="42.898179" lon="-0.722916">
        <ele>1740.6</ele>
        <time>2012-12-22T11:06:53Z</time>
      </trkpt>
      <trkpt lat="42.898135" lon="-0.722808">
        <ele>1736.8</ele>
        <time>2012-12-22T11:07:05Z</time>
      </trkpt>
      <trkpt lat="42.898112" lon="-0.722678">
        <ele>1733.4</ele>
        <time>2012-12-22T11:07:14Z</time>
      </trkpt>
      <trkpt lat="42.898087" lon="-0.722556">
        <ele>1729.1</ele>
        <time>2012-12-22T11:07:23Z</time>
      </trkpt>
      <trkpt lat="42.898052" lon="-0.722444">
        <ele>1724.3</ele>
        <time>2012-12-22T11:07:33Z</time>
      </trkpt>
      <trkpt lat="42.898049" lon="-0.722331">
        <ele>1719.0</ele>
        <time>2012-12-22T11:07:43Z</time>
      </trkpt>
      <trkpt lat="42.898011" lon="-0.722214">
        <ele>1714.2</ele>
        <time>2012-12-22T11:07:54Z</time>
      </trkpt>
      <trkpt lat="42.897970" lon="-0.722103">
        <ele>1707.4</ele>
        <time>2012-12-22T11:08:06Z</time>
      </trkpt>
      <trkpt lat="42.897939" lon="-0.721990">
        <ele>1702.2</ele>
        <time>2012-12-22T11:08:19Z</time>
      </trkpt>
      <trkpt lat="42.897906" lon="-0.721866">
        <ele>1697.3</ele>
        <time>2012-12-22T11:08:29Z</time>
      </trkpt>
      <trkpt lat="42.897875" lon="-0.721743">
        <ele>1691.6</ele>
        <time>2012-12-22T11:08:40Z</time>
      </trkpt>
      <trkpt lat="42.897870" lon="-0.721610">
        <ele>1686.8</ele>
        <time>2012-12-22T11:08:50Z</time>
      </trkpt>
      <trkpt lat="42.897883" lon="-0.721487">
        <ele>1682.0</ele>
        <time>2012-12-22T11:09:01Z</time>
      </trkpt>
      <trkpt lat="42.897882" lon="-0.721373">
        <ele>1677.6</ele>
        <time>2012-12-22T11:09:18Z</time>
      </trkpt>
      <trkpt lat="42.897881" lon="-0.721232">
        <ele>1673.3</ele>
        <time>2012-12-22T11:09:29Z</time>
      </trkpt>
      <trkpt lat="42.897889" lon="-0.721109">
        <ele>1668.5</ele>
        <time>2012-12-22T11:09:39Z</time>
      </trkpt>
      <trkpt lat="42.897920" lon="-0.720993">
        <ele>1665.1</ele>
        <time>2012-12-22T11:10:03Z</time>
      </trkpt>
      <trkpt lat="42.897933" lon="-0.720882">
        <ele>1662.3</ele>
        <time>2012-12-22T11:10:20Z</time>
      </trkpt>
      <trkpt lat="42.897912" lon="-0.720758">
        <ele>1658.9</ele>
        <time>2012-12-22T11:10:30Z</time>
      </trkpt>
      <trkpt lat="42.897900" lon="-0.720637">
        <ele>1655.1</ele>
        <time>2012-12-22T11:10:38Z</time>
      </trkpt>
      <trkpt lat="42.897899" lon="-0.720501">
        <ele>1651.2</ele>
        <time>2012-12-22T11:10:46Z</time>
      </trkpt>
      <trkpt lat="42.897888" lon="-0.720346">
        <ele>1647.4</ele>
        <time>2012-12-22T11:10:54Z</time>
      </trkpt>
      <trkpt lat="42.897871" lon="-0.720218">
        <ele>1644.0</ele>
        <time>2012-12-22T11:11:01Z</time>
      </trkpt>
      <trkpt lat="42.897850" lon="-0.720063">
        <ele>1640.6</ele>
        <time>2012-12-22T11:11:09Z</time>
      </trkpt>
      <trkpt lat="42.897826" lon="-0.719944">
        <ele>1637.7</ele>
        <time>2012-12-22T11:11:17Z</time>
      </trkpt>
      <trkpt lat="42.897806" lon="-0.719822">
        <ele>1635.8</ele>
        <time>2012-12-22T11:11:27Z</time>
      </trkpt>
      <trkpt lat="42.897798" lon="-0.719700">
        <ele>1633.9</ele>
        <time>2012-12-22T11:11:36Z</time>
      </trkpt>
      <trkpt lat="42.897803" lon="-0.719558">
        <ele>1630.5</ele>
        <time>2012-12-22T11:11:45Z</time>
      </trkpt>
      <trkpt lat="42.897830" lon="-0.719425">
        <ele>1627.2</ele>
        <time>2012-12-22T11:11:53Z</time>
      </trkpt>
      <trkpt lat="42.897835" lon="-0.719309">
        <ele>1623.8</ele>
        <time>2012-12-22T11:12:01Z</time>
      </trkpt>
      <trkpt lat="42.897841" lon="-0.719189">
        <ele>1620.4</ele>
        <time>2012-12-22T11:12:12Z</time>
      </trkpt>
      <trkpt lat="42.897835" lon="-0.719056">
        <ele>1617.6</ele>
        <time>2012-12-22T11:12:21Z</time>
      </trkpt>
      <trkpt lat="42.897837" lon="-0.718936">
        <ele>1614.7</ele>
        <time>2012-12-22T11:12:29Z</time>
      </trkpt>
      <trkpt lat="42.897848" lon="-0.718799">
        <ele>1612.3</ele>
        <time>2012-12-22T11:12:38Z</time>
      </trkpt>
      <trkpt lat="42.897869" lon="-0.718673">
        <ele>1609.9</ele>
        <time>2012-12-22T11:12:47Z</time>
      </trkpt>
      <trkpt lat="42.897904" lon="-0.718538">
        <ele>1607.0</ele>
        <time>2012-12-22T11:12:56Z</time>
      </trkpt>
      <trkpt lat="42.897925" lon="-0.718390">
        <ele>1604.1</ele>
        <time>2012-12-22T11:13:06Z</time>
      </trkpt>
      <trkpt lat="42.897943" lon="-0.718261">
        <ele>1601.7</ele>
        <time>2012-12-22T11:13:14Z</time>
      </trkpt>
      <trkpt lat="42.897969" lon="-0.718141">
        <ele>1600.2</ele>
        <time>2012-12-22T11:13:22Z</time>
      </trkpt>
      <trkpt lat="42.897976" lon="-0.718004">
        <ele>1597.8</ele>
        <time>2012-12-22T11:13:31Z</time>
      </trkpt>
      <trkpt lat="42.897989" lon="-0.717867">
        <ele>1595.4</ele>
        <time>2012-12-22T11:13:39Z</time>
      </trkpt>
      <trkpt lat="42.897993" lon="-0.717746">
        <ele>1592.6</ele>
        <time>2012-12-22T11:13:47Z</time>
      </trkpt>
      <trkpt lat="42.898001" lon="-0.717597">
        <ele>1590.6</ele>
        <time>2012-12-22T11:13:55Z</time>
      </trkpt>
      <trkpt lat="42.898012" lon="-0.717480">
        <ele>1588.7</ele>
        <time>2012-12-22T11:14:03Z</time>
      </trkpt>
      <trkpt lat="42.898027" lon="-0.717356">
        <ele>1585.8</ele>
        <time>2012-12-22T11:14:11Z</time>
      </trkpt>
      <trkpt lat="42.898041" lon="-0.717228">
        <ele>1583.9</ele>
        <time>2012-12-22T11:14:18Z</time>
      </trkpt>
      <trkpt lat="42.898044" lon="-0.717095">
        <ele>1582.0</ele>
        <time>2012-12-22T11:14:26Z</time>
      </trkpt>
      <trkpt lat="42.898062" lon="-0.716962">
        <ele>1580.1</ele>
        <time>2012-12-22T11:14:35Z</time>
      </trkpt>
      <trkpt lat="42.898069" lon="-0.716820">
        <ele>1578.6</ele>
        <time>2012-12-22T11:14:43Z</time>
      </trkpt>
      <trkpt lat="42.898077" lon="-0.716680">
        <ele>1577.2</ele>
        <time>2012-12-22T11:14:52Z</time>
      </trkpt>
      <trkpt lat="42.898103" lon="-0.716556">
        <ele>1575.3</ele>
        <time>2012-12-22T11:15:01Z</time>
      </trkpt>
      <trkpt lat="42.898136" lon="-0.716431">
        <ele>1573.8</ele>
        <time>2012-12-22T11:15:09Z</time>
      </trkpt>
      <trkpt lat="42.898164" lon="-0.716335">
        <ele>1606.2</ele>
        <time>2012-12-22T11:15:19Z</time>
      </trkpt>
      <trkpt lat="42.898221" lon="-0.716293">
        <ele>1579.6</ele>
        <time>2012-12-22T11:52:01Z</time>
      </trkpt>
      <trkpt lat="42.898273" lon="-0.716198">
        <ele>1578.1</ele>
        <time>2012-12-22T11:52:19Z</time>
      </trkpt>
      <trkpt lat="42.898323" lon="-0.716072">
        <ele>1577.2</ele>
        <time>2012-12-22T11:52:28Z</time>
      </trkpt>
      <trkpt lat="42.898363" lon="-0.715976">
        <ele>1574.8</ele>
        <time>2012-12-22T11:52:36Z</time>
      </trkpt>
      <trkpt lat="42.898402" lon="-0.715861">
        <ele>1572.4</ele>
        <time>2012-12-22T11:52:45Z</time>
      </trkpt>
      <trkpt lat="42.898439" lon="-0.715745">
        <ele>1570.0</ele>
        <time>2012-12-22T11:52:54Z</time>
      </trkpt>
      <trkpt lat="42.898470" lon="-0.715621">
        <ele>1567.6</ele>
        <time>2012-12-22T11:53:03Z</time>
      </trkpt>
      <trkpt lat="42.898499" lon="-0.715491">
        <ele>1565.6</ele>
        <time>2012-12-22T11:53:13Z</time>
      </trkpt>
      <trkpt lat="42.898542" lon="-0.715372">
        <ele>1563.7</ele>
        <time>2012-12-22T11:53:23Z</time>
      </trkpt>
      <trkpt lat="42.898582" lon="-0.715242">
        <ele>1561.8</ele>
        <time>2012-12-22T11:53:33Z</time>
      </trkpt>
      <trkpt lat="42.898601" lon="-0.715108">
        <ele>1559.9</ele>
        <time>2012-12-22T11:53:42Z</time>
      </trkpt>
      <trkpt lat="42.898624" lon="-0.714971">
        <ele>1557.9</ele>
        <time>2012-12-22T11:53:51Z</time>
      </trkpt>
      <trkpt lat="42.898660" lon="-0.714834">
        <ele>1556.0</ele>
        <time>2012-12-22T11:54:00Z</time>
      </trkpt>
      <trkpt lat="42.898713" lon="-0.714702">
        <ele>1554.1</ele>
        <time>2012-12-22T11:54:09Z</time>
      </trkpt>
      <trkpt lat="42.898756" lon="-0.714577">
        <ele>1553.2</ele>
        <time>2012-12-22T11:54:18Z</time>
      </trkpt>
      <trkpt lat="42.898794" lon="-0.714462">
        <ele>1551.7</ele>
        <time>2012-12-22T11:54:27Z</time>
      </trkpt>
      <trkpt lat="42.898813" lon="-0.714322">
        <ele>1549.3</ele>
        <time>2012-12-22T11:54:37Z</time>
      </trkpt>
      <trkpt lat="42.898837" lon="-0.714182">
        <ele>1548.3</ele>
        <time>2012-12-22T11:54:46Z</time>
      </trkpt>
      <trkpt lat="42.898876" lon="-0.714065">
        <ele>1546.4</ele>
        <time>2012-12-22T11:54:55Z</time>
      </trkpt>
      <trkpt lat="42.898914" lon="-0.713954">
        <ele>1544.5</ele>
        <time>2012-12-22T11:55:04Z</time>
      </trkpt>
      <trkpt lat="42.898981" lon="-0.713834">
        <ele>1544.0</ele>
        <time>2012-12-22T11:55:16Z</time>
      </trkpt>
      <trkpt lat="42.899062" lon="-0.713728">
        <ele>1543.1</ele>
        <time>2012-12-22T11:55:27Z</time>
      </trkpt>
      <trkpt lat="42.899136" lon="-0.713619">
        <ele>1540.7</ele>
        <time>2012-12-22T11:55:38Z</time>
      </trkpt>
      <trkpt lat="42.899182" lon="-0.713476">
        <ele>1537.8</ele>
        <time>2012-12-22T11:55:49Z</time>
      </trkpt>
      <trkpt lat="42.899251" lon="-0.713351">
        <ele>1535.8</ele>
        <time>2012-12-22T11:56:01Z</time>
      </trkpt>
      <trkpt lat="42.899168" lon="-0.713230">
        <ele>1533.9</ele>
        <time>2012-12-22T11:56:14Z</time>
      </trkpt>
      <trkpt lat="42.899060" lon="-0.713256">
        <ele>1533.0</ele>
        <time>2012-12-22T11:56:25Z</time>
      </trkpt>
      <trkpt lat="42.898953" lon="-0.713357">
        <ele>1531.5</ele>
        <time>2012-12-22T11:56:39Z</time>
      </trkpt>
      <trkpt lat="42.898832" lon="-0.713436">
        <ele>1528.6</ele>
        <time>2012-12-22T11:56:52Z</time>
      </trkpt>
      <trkpt lat="42.898687" lon="-0.713467">
        <ele>1525.3</ele>
        <time>2012-12-22T11:57:07Z</time>
      </trkpt>
      <trkpt lat="42.898750" lon="-0.713337">
        <ele>1522.4</ele>
        <time>2012-12-22T11:57:21Z</time>
      </trkpt>
      <trkpt lat="42.898862" lon="-0.713165">
        <ele>1518.5</ele>
        <time>2012-12-22T11:57:39Z</time>
      </trkpt>
      <trkpt lat="42.898977" lon="-0.713005">
        <ele>1514.2</ele>
        <time>2012-12-22T11:57:54Z</time>
      </trkpt>
      <trkpt lat="42.899156" lon="-0.712889">
        <ele>1510.8</ele>
        <time>2012-12-22T11:58:11Z</time>
      </trkpt>
      <trkpt lat="42.899286" lon="-0.712735">
        <ele>1507.5</ele>
        <time>2012-12-22T11:58:24Z</time>
      </trkpt>
      <trkpt lat="42.899374" lon="-0.712603">
        <ele>1504.6</ele>
        <time>2012-12-22T11:58:38Z</time>
      </trkpt>
      <trkpt lat="42.899275" lon="-0.712597">
        <ele>1501.2</ele>
        <time>2012-12-22T11:58:52Z</time>
      </trkpt>
      <trkpt lat="42.899149" lon="-0.712603">
        <ele>1499.3</ele>
        <time>2012-12-22T11:59:04Z</time>
      </trkpt>
      <trkpt lat="42.898984" lon="-0.712559">
        <ele>1495.9</ele>
        <time>2012-12-22T11:59:16Z</time>
      </trkpt>
      <trkpt lat="42.898834" lon="-0.712470">
        <ele>1493.1</ele>
        <time>2012-12-22T11:59:31Z</time>
      </trkpt>
      <trkpt lat="42.898740" lon="-0.712439">
        <ele>1491.1</ele>
        <time>2012-12-22T11:59:44Z</time>
      </trkpt>
      <trkpt lat="42.898868" lon="-0.712349">
        <ele>1487.3</ele>
        <time>2012-12-22T11:59:59Z</time>
      </trkpt>
      <trkpt lat="42.898952" lon="-0.712230">
        <ele>1484.9</ele>
        <time>2012-12-22T12:00:10Z</time>
      </trkpt>
      <trkpt lat="42.899059" lon="-0.712118">
        <ele>1481.1</ele>
        <time>2012-12-22T12:00:24Z</time>
      </trkpt>
      <trkpt lat="42.899158" lon="-0.711973">
        <ele>1478.2</ele>
        <time>2012-12-22T12:00:35Z</time>
      </trkpt>
      <trkpt lat="42.899249" lon="-0.711837">
        <ele>1475.3</ele>
        <time>2012-12-22T12:00:46Z</time>
      </trkpt>
      <trkpt lat="42.899329" lon="-0.711691">
        <ele>1472.4</ele>
        <time>2012-12-22T12:00:57Z</time>
      </trkpt>
      <trkpt lat="42.899429" lon="-0.711589">
        <ele>1470.5</ele>
        <time>2012-12-22T12:01:10Z</time>
      </trkpt>
      <trkpt lat="42.899588" lon="-0.711463">
        <ele>1467.1</ele>
        <time>2012-12-22T12:01:28Z</time>
      </trkpt>
      <trkpt lat="42.899716" lon="-0.711285">
        <ele>1463.7</ele>
        <time>2012-12-22T12:01:43Z</time>
      </trkpt>
      <trkpt lat="42.899987" lon="-0.711142">
        <ele>1458.9</ele>
        <time>2012-12-22T12:02:01Z</time>
      </trkpt>
      <trkpt lat="42.900147" lon="-0.711058">
        <ele>1454.6</ele>
        <time>2012-12-22T12:02:20Z</time>
      </trkpt>
      <trkpt lat="42.900312" lon="-0.710903">
        <ele>1452.2</ele>
        <time>2012-12-22T12:02:36Z</time>
      </trkpt>
      <trkpt lat="42.900442" lon="-0.710803">
        <ele>1451.2</ele>
        <time>2012-12-22T12:02:50Z</time>
      </trkpt>
      <trkpt lat="42.900523" lon="-0.710697">
        <ele>1450.8</ele>
        <time>2012-12-22T12:02:59Z</time>
      </trkpt>
      <trkpt lat="42.900633" lon="-0.710602">
        <ele>1450.3</ele>
        <time>2012-12-22T12:03:11Z</time>
      </trkpt>
      <trkpt lat="42.900724" lon="-0.710496">
        <ele>1448.4</ele>
        <time>2012-12-22T12:03:23Z</time>
      </trkpt>
      <trkpt lat="42.900827" lon="-0.710379">
        <ele>1446.9</ele>
        <time>2012-12-22T12:03:37Z</time>
      </trkpt>
      <trkpt lat="42.900946" lon="-0.710256">
        <ele>1445.0</ele>
        <time>2012-12-22T12:03:51Z</time>
      </trkpt>
      <trkpt lat="42.901040" lon="-0.710144">
        <ele>1443.1</ele>
        <time>2012-12-22T12:04:02Z</time>
      </trkpt>
      <trkpt lat="42.901149" lon="-0.710032">
        <ele>1439.7</ele>
        <time>2012-12-22T12:04:14Z</time>
      </trkpt>
      <trkpt lat="42.901272" lon="-0.709933">
        <ele>1436.8</ele>
        <time>2012-12-22T12:04:26Z</time>
      </trkpt>
      <trkpt lat="42.901446" lon="-0.709842">
        <ele>1433.0</ele>
        <time>2012-12-22T12:04:41Z</time>
      </trkpt>
      <trkpt lat="42.901554" lon="-0.709607">
        <ele>1427.7</ele>
        <time>2012-12-22T12:04:59Z</time>
      </trkpt>
      <trkpt lat="42.901713" lon="-0.709442">
        <ele>1424.3</ele>
        <time>2012-12-22T12:05:12Z</time>
      </trkpt>
      <trkpt lat="42.901793" lon="-0.709298">
        <ele>1421.0</ele>
        <time>2012-12-22T12:05:27Z</time>
      </trkpt>
      <trkpt lat="42.901868" lon="-0.709121">
        <ele>1416.6</ele>
        <time>2012-12-22T12:05:46Z</time>
      </trkpt>
      <trkpt lat="42.902012" lon="-0.709128">
        <ele>1412.3</ele>
        <time>2012-12-22T12:06:15Z</time>
      </trkpt>
      <trkpt lat="42.902166" lon="-0.709225">
        <ele>1408.9</ele>
        <time>2012-12-22T12:06:30Z</time>
      </trkpt>
      <trkpt lat="42.902285" lon="-0.709281">
        <ele>1406.1</ele>
        <time>2012-12-22T12:06:41Z</time>
      </trkpt>
      <trkpt lat="42.902433" lon="-0.709368">
        <ele>1400.3</ele>
        <time>2012-12-22T12:06:57Z</time>
      </trkpt>
      <trkpt lat="42.902550" lon="-0.709445">
        <ele>1398.4</ele>
        <time>2012-12-22T12:07:11Z</time>
      </trkpt>
      <trkpt lat="42.902659" lon="-0.709565">
        <ele>1396.0</ele>
        <time>2012-12-22T12:07:21Z</time>
      </trkpt>
      <trkpt lat="42.902779" lon="-0.709553">
        <ele>1393.1</ele>
        <time>2012-12-22T12:07:31Z</time>
      </trkpt>
      <trkpt lat="42.902799" lon="-0.709520">
        <ele>1392.1</ele>
        <time>2012-12-22T12:08:58Z</time>
      </trkpt>
      <trkpt lat="42.902841" lon="-0.709547">
        <ele>1392.1</ele>
        <time>2012-12-22T12:10:13Z</time>
      </trkpt>
      <trkpt lat="42.902892" lon="-0.709491">
        <ele>1387.8</ele>
        <time>2012-12-22T12:10:39Z</time>
      </trkpt>
      <trkpt lat="42.902900" lon="-0.709324">
        <ele>1384.0</ele>
        <time>2012-12-22T12:10:51Z</time>
      </trkpt>
      <trkpt lat="42.902943" lon="-0.709222">
        <ele>1379.6</ele>
        <time>2012-12-22T12:11:04Z</time>
      </trkpt>
      <trkpt lat="42.903007" lon="-0.709136">
        <ele>1376.3</ele>
        <time>2012-12-22T12:11:11Z</time>
      </trkpt>
      <trkpt lat="42.903113" lon="-0.709090">
        <ele>1372.4</ele>
        <time>2012-12-22T12:11:20Z</time>
      </trkpt>
      <trkpt lat="42.903219" lon="-0.709067">
        <ele>1370.5</ele>
        <time>2012-12-22T12:11:27Z</time>
      </trkpt>
      <trkpt lat="42.903303" lon="-0.709009">
        <ele>1369.5</ele>
        <time>2012-12-22T12:11:33Z</time>
      </trkpt>
      <trkpt lat="42.903370" lon="-0.708919">
        <ele>1369.1</ele>
        <time>2012-12-22T12:11:41Z</time>
      </trkpt>
      <trkpt lat="42.903388" lon="-0.708873">
        <ele>1368.1</ele>
        <time>2012-12-22T12:12:18Z</time>
      </trkpt>
      <trkpt lat="42.903443" lon="-0.708779">
        <ele>1367.1</ele>
        <time>2012-12-22T12:12:26Z</time>
      </trkpt>
      <trkpt lat="42.903498" lon="-0.708727">
        <ele>1366.7</ele>
        <time>2012-12-22T12:12:34Z</time>
      </trkpt>
      <trkpt lat="42.903574" lon="-0.708652">
        <ele>1365.7</ele>
        <time>2012-12-22T12:12:41Z</time>
      </trkpt>
      <trkpt lat="42.903635" lon="-0.708564">
        <ele>1366.2</ele>
        <time>2012-12-22T12:12:49Z</time>
      </trkpt>
      <trkpt lat="42.903719" lon="-0.708496">
        <ele>1366.7</ele>
        <time>2012-12-22T12:12:58Z</time>
      </trkpt>
      <trkpt lat="42.903796" lon="-0.708415">
        <ele>1366.2</ele>
        <time>2012-12-22T12:13:06Z</time>
      </trkpt>
      <trkpt lat="42.903874" lon="-0.708345">
        <ele>1366.2</ele>
        <time>2012-12-22T12:13:12Z</time>
      </trkpt>
      <trkpt lat="42.903927" lon="-0.708292">
        <ele>1366.2</ele>
        <time>2012-12-22T12:13:24Z</time>
      </trkpt>
      <trkpt lat="42.903970" lon="-0.708209">
        <ele>1365.7</ele>
        <time>2012-12-22T12:14:06Z</time>
      </trkpt>
      <trkpt lat="42.904018" lon="-0.708085">
        <ele>1364.7</ele>
        <time>2012-12-22T12:14:17Z</time>
      </trkpt>
      <trkpt lat="42.903992" lon="-0.707920">
        <ele>1364.7</ele>
        <time>2012-12-22T12:14:28Z</time>
      </trkpt>
      <trkpt lat="42.904023" lon="-0.707793">
        <ele>1364.2</ele>
        <time>2012-12-22T12:14:37Z</time>
      </trkpt>
      <trkpt lat="42.904115" lon="-0.707742">
        <ele>1364.2</ele>
        <time>2012-12-22T12:14:46Z</time>
      </trkpt>
      <trkpt lat="42.904128" lon="-0.707620">
        <ele>1363.8</ele>
        <time>2012-12-22T12:14:54Z</time>
      </trkpt>
      <trkpt lat="42.904213" lon="-0.707636">
        <ele>1363.8</ele>
        <time>2012-12-22T12:15:04Z</time>
      </trkpt>
      <trkpt lat="42.904266" lon="-0.707538">
        <ele>1365.7</ele>
        <time>2012-12-22T12:15:14Z</time>
      </trkpt>
      <trkpt lat="42.904277" lon="-0.707403">
        <ele>1365.7</ele>
        <time>2012-12-22T12:15:24Z</time>
      </trkpt>
      <trkpt lat="42.904257" lon="-0.707253">
        <ele>1366.7</ele>
        <time>2012-12-22T12:15:34Z</time>
      </trkpt>
      <trkpt lat="42.904270" lon="-0.707102">
        <ele>1366.7</ele>
        <time>2012-12-22T12:15:45Z</time>
      </trkpt>
      <trkpt lat="42.904270" lon="-0.706948">
        <ele>1367.6</ele>
        <time>2012-12-22T12:15:55Z</time>
      </trkpt>
      <trkpt lat="42.904246" lon="-0.706840">
        <ele>1368.6</ele>
        <time>2012-12-22T12:16:03Z</time>
      </trkpt>
      <trkpt lat="42.904237" lon="-0.706706">
        <ele>1368.1</ele>
        <time>2012-12-22T12:16:13Z</time>
      </trkpt>
      <trkpt lat="42.904219" lon="-0.706566">
        <ele>1368.6</ele>
        <time>2012-12-22T12:16:24Z</time>
      </trkpt>
      <trkpt lat="42.904213" lon="-0.706438">
        <ele>1368.6</ele>
        <time>2012-12-22T12:16:32Z</time>
      </trkpt>
      <trkpt lat="42.904217" lon="-0.706284">
        <ele>1369.1</ele>
        <time>2012-12-22T12:16:41Z</time>
      </trkpt>
      <trkpt lat="42.904199" lon="-0.706139">
        <ele>1369.1</ele>
        <time>2012-12-22T12:16:50Z</time>
      </trkpt>
      <trkpt lat="42.904190" lon="-0.706018">
        <ele>1369.1</ele>
        <time>2012-12-22T12:16:58Z</time>
      </trkpt>
      <trkpt lat="42.904175" lon="-0.705880">
        <ele>1369.5</ele>
        <time>2012-12-22T12:17:08Z</time>
      </trkpt>
      <trkpt lat="42.904177" lon="-0.705734">
        <ele>1369.1</ele>
        <time>2012-12-22T12:17:17Z</time>
      </trkpt>
      <trkpt lat="42.904229" lon="-0.705598">
        <ele>1369.1</ele>
        <time>2012-12-22T12:17:27Z</time>
      </trkpt>
      <trkpt lat="42.904264" lon="-0.705476">
        <ele>1368.6</ele>
        <time>2012-12-22T12:17:37Z</time>
      </trkpt>
      <trkpt lat="42.904341" lon="-0.705348">
        <ele>1367.6</ele>
        <time>2012-12-22T12:17:47Z</time>
      </trkpt>
      <trkpt lat="42.904361" lon="-0.705198">
        <ele>1367.1</ele>
        <time>2012-12-22T12:17:58Z</time>
      </trkpt>
      <trkpt lat="42.904362" lon="-0.705028">
        <ele>1365.2</ele>
        <time>2012-12-22T12:18:09Z</time>
      </trkpt>
      <trkpt lat="42.904343" lon="-0.704844">
        <ele>1365.7</ele>
        <time>2012-12-22T12:18:22Z</time>
      </trkpt>
      <trkpt lat="42.904290" lon="-0.704712">
        <ele>1364.7</ele>
        <time>2012-12-22T12:18:33Z</time>
      </trkpt>
      <trkpt lat="42.904269" lon="-0.704542">
        <ele>1363.3</ele>
        <time>2012-12-22T12:18:47Z</time>
      </trkpt>
      <trkpt lat="42.904264" lon="-0.704335">
        <ele>1360.9</ele>
        <time>2012-12-22T12:18:59Z</time>
      </trkpt>
      <trkpt lat="42.904303" lon="-0.704133">
        <ele>1359.0</ele>
        <time>2012-12-22T12:19:11Z</time>
      </trkpt>
      <trkpt lat="42.904364" lon="-0.703974">
        <ele>1357.5</ele>
        <time>2012-12-22T12:19:22Z</time>
      </trkpt>
      <trkpt lat="42.904436" lon="-0.703855">
        <ele>1356.1</ele>
        <time>2012-12-22T12:19:31Z</time>
      </trkpt>
      <trkpt lat="42.904496" lon="-0.703723">
        <ele>1353.2</ele>
        <time>2012-12-22T12:19:42Z</time>
      </trkpt>
      <trkpt lat="42.904491" lon="-0.703577">
        <ele>1352.2</ele>
        <time>2012-12-22T12:19:52Z</time>
      </trkpt>
      <trkpt lat="42.904408" lon="-0.703442">
        <ele>1351.8</ele>
        <time>2012-12-22T12:21:42Z</time>
      </trkpt>
      <trkpt lat="42.904367" lon="-0.703286">
        <ele>1349.3</ele>
        <time>2012-12-22T12:21:55Z</time>
      </trkpt>
      <trkpt lat="42.904343" lon="-0.703113">
        <ele>1346.9</ele>
        <time>2012-12-22T12:22:07Z</time>
      </trkpt>
      <trkpt lat="42.904286" lon="-0.702933">
        <ele>1343.6</ele>
        <time>2012-12-22T12:22:17Z</time>
      </trkpt>
      <trkpt lat="42.904230" lon="-0.702767">
        <ele>1341.2</ele>
        <time>2012-12-22T12:22:25Z</time>
      </trkpt>
      <trkpt lat="42.904281" lon="-0.702587">
        <ele>1338.3</ele>
        <time>2012-12-22T12:22:37Z</time>
      </trkpt>
      <trkpt lat="42.904343" lon="-0.702513">
        <ele>1336.4</ele>
        <time>2012-12-22T12:22:53Z</time>
      </trkpt>
      <trkpt lat="42.904389" lon="-0.702390">
        <ele>1334.9</ele>
        <time>2012-12-22T12:23:07Z</time>
      </trkpt>
      <trkpt lat="42.904380" lon="-0.702229">
        <ele>1332.5</ele>
        <time>2012-12-22T12:23:25Z</time>
      </trkpt>
      <trkpt lat="42.904395" lon="-0.702049">
        <ele>1329.2</ele>
        <time>2012-12-22T12:23:37Z</time>
      </trkpt>
      <trkpt lat="42.904441" lon="-0.701938">
        <ele>1326.3</ele>
        <time>2012-12-22T12:23:46Z</time>
      </trkpt>
      <trkpt lat="42.904379" lon="-0.701825">
        <ele>1323.4</ele>
        <time>2012-12-22T12:23:58Z</time>
      </trkpt>
      <trkpt lat="42.904420" lon="-0.701656">
        <ele>1320.0</ele>
        <time>2012-12-22T12:24:09Z</time>
      </trkpt>
      <trkpt lat="42.904449" lon="-0.701529">
        <ele>1318.6</ele>
        <time>2012-12-22T12:24:18Z</time>
      </trkpt>
      <trkpt lat="42.904475" lon="-0.701176">
        <ele>1314.7</ele>
        <time>2012-12-22T12:24:35Z</time>
      </trkpt>
      <trkpt lat="42.904417" lon="-0.700991">
        <ele>1310.4</ele>
        <time>2012-12-22T12:24:49Z</time>
      </trkpt>
      <trkpt lat="42.904370" lon="-0.700823">
        <ele>1308.0</ele>
        <time>2012-12-22T12:25:01Z</time>
      </trkpt>
      <trkpt lat="42.904412" lon="-0.700609">
        <ele>1305.6</ele>
        <time>2012-12-22T12:25:13Z</time>
      </trkpt>
      <trkpt lat="42.904400" lon="-0.700418">
        <ele>1304.2</ele>
        <time>2012-12-22T12:25:23Z</time>
      </trkpt>
      <trkpt lat="42.904429" lon="-0.700245">
        <ele>1303.7</ele>
        <time>2012-12-22T12:25:31Z</time>
      </trkpt>
      <trkpt lat="42.904516" lon="-0.700100">
        <ele>1302.7</ele>
        <time>2012-12-22T12:25:39Z</time>
      </trkpt>
      <trkpt lat="42.904564" lon="-0.699960">
        <ele>1301.8</ele>
        <time>2012-12-22T12:25:46Z</time>
      </trkpt>
      <trkpt lat="42.904551" lon="-0.699804">
        <ele>1302.2</ele>
        <time>2012-12-22T12:25:55Z</time>
      </trkpt>
      <trkpt lat="42.904538" lon="-0.699636">
        <ele>1302.7</ele>
        <time>2012-12-22T12:26:05Z</time>
      </trkpt>
      <trkpt lat="42.904497" lon="-0.699475">
        <ele>1301.8</ele>
        <time>2012-12-22T12:26:13Z</time>
      </trkpt>
      <trkpt lat="42.904477" lon="-0.699315">
        <ele>1299.8</ele>
        <time>2012-12-22T12:26:22Z</time>
      </trkpt>
      <trkpt lat="42.904506" lon="-0.699174">
        <ele>1297.4</ele>
        <time>2012-12-22T12:26:36Z</time>
      </trkpt>
      <trkpt lat="42.904498" lon="-0.699038">
        <ele>1294.6</ele>
        <time>2012-12-22T12:26:49Z</time>
      </trkpt>
      <trkpt lat="42.904455" lon="-0.698897">
        <ele>1291.2</ele>
        <time>2012-12-22T12:26:57Z</time>
      </trkpt>
      <trkpt lat="42.904440" lon="-0.698757">
        <ele>1287.8</ele>
        <time>2012-12-22T12:27:06Z</time>
      </trkpt>
      <trkpt lat="42.904423" lon="-0.698609">
        <ele>1285.4</ele>
        <time>2012-12-22T12:27:15Z</time>
      </trkpt>
      <trkpt lat="42.904421" lon="-0.698512">
        <ele>1282.1</ele>
        <time>2012-12-22T12:27:24Z</time>
      </trkpt>
      <trkpt lat="42.904497" lon="-0.698427">
        <ele>1279.2</ele>
        <time>2012-12-22T12:27:33Z</time>
      </trkpt>
      <trkpt lat="42.904492" lon="-0.698233">
        <ele>1275.8</ele>
        <time>2012-12-22T12:27:44Z</time>
      </trkpt>
      <trkpt lat="42.904437" lon="-0.698118">
        <ele>1273.4</ele>
        <time>2012-12-22T12:27:51Z</time>
      </trkpt>
      <trkpt lat="42.904394" lon="-0.697967">
        <ele>1272.0</ele>
        <time>2012-12-22T12:27:59Z</time>
      </trkpt>
      <trkpt lat="42.904426" lon="-0.697871">
        <ele>1271.0</ele>
        <time>2012-12-22T12:28:44Z</time>
      </trkpt>
      <trkpt lat="42.904356" lon="-0.697747">
        <ele>1268.1</ele>
        <time>2012-12-22T12:28:51Z</time>
      </trkpt>
      <trkpt lat="42.904274" lon="-0.697651">
        <ele>1266.2</ele>
        <time>2012-12-22T12:28:58Z</time>
      </trkpt>
      <trkpt lat="42.904215" lon="-0.697500">
        <ele>1264.8</ele>
        <time>2012-12-22T12:29:05Z</time>
      </trkpt>
      <trkpt lat="42.904139" lon="-0.697369">
        <ele>1262.3</ele>
        <time>2012-12-22T12:29:13Z</time>
      </trkpt>
      <trkpt lat="42.904138" lon="-0.697243">
        <ele>1260.9</ele>
        <time>2012-12-22T12:29:19Z</time>
      </trkpt>
      <trkpt lat="42.904168" lon="-0.697125">
        <ele>1259.0</ele>
        <time>2012-12-22T12:29:26Z</time>
      </trkpt>
      <trkpt lat="42.904186" lon="-0.696999">
        <ele>1256.6</ele>
        <time>2012-12-22T12:29:33Z</time>
      </trkpt>
      <trkpt lat="42.904188" lon="-0.696877">
        <ele>1255.1</ele>
        <time>2012-12-22T12:29:39Z</time>
      </trkpt>
      <trkpt lat="42.904200" lon="-0.696759">
        <ele>1253.2</ele>
        <time>2012-12-22T12:29:45Z</time>
      </trkpt>
      <trkpt lat="42.904219" lon="-0.696652">
        <ele>1252.2</ele>
        <time>2012-12-22T12:29:51Z</time>
      </trkpt>
      <trkpt lat="42.904199" lon="-0.696529">
        <ele>1249.8</ele>
        <time>2012-12-22T12:29:58Z</time>
      </trkpt>
      <trkpt lat="42.904116" lon="-0.696468">
        <ele>1249.4</ele>
        <time>2012-12-22T12:30:05Z</time>
      </trkpt>
      <trkpt lat="42.904042" lon="-0.696389">
        <ele>1247.0</ele>
        <time>2012-12-22T12:30:12Z</time>
      </trkpt>
      <trkpt lat="42.903991" lon="-0.696268">
        <ele>1246.0</ele>
        <time>2012-12-22T12:30:20Z</time>
      </trkpt>
      <trkpt lat="42.903939" lon="-0.696160">
        <ele>1244.1</ele>
        <time>2012-12-22T12:30:26Z</time>
      </trkpt>
      <trkpt lat="42.903932" lon="-0.696039">
        <ele>1243.1</ele>
        <time>2012-12-22T12:30:30Z</time>
      </trkpt>
      <trkpt lat="42.903944" lon="-0.695912">
        <ele>1241.7</ele>
        <time>2012-12-22T12:30:39Z</time>
      </trkpt>
      <trkpt lat="42.903950" lon="-0.695784">
        <ele>1239.8</ele>
        <time>2012-12-22T12:30:46Z</time>
      </trkpt>
      <trkpt lat="42.903957" lon="-0.695648">
        <ele>1238.3</ele>
        <time>2012-12-22T12:30:52Z</time>
      </trkpt>
      <trkpt lat="42.903969" lon="-0.695523">
        <ele>1236.4</ele>
        <time>2012-12-22T12:30:58Z</time>
      </trkpt>
      <trkpt lat="42.903953" lon="-0.695391">
        <ele>1234.5</ele>
        <time>2012-12-22T12:31:06Z</time>
      </trkpt>
      <trkpt lat="42.903933" lon="-0.695264">
        <ele>1232.6</ele>
        <time>2012-12-22T12:31:13Z</time>
      </trkpt>
      <trkpt lat="42.903913" lon="-0.695152">
        <ele>1231.6</ele>
        <time>2012-12-22T12:31:18Z</time>
      </trkpt>
      <trkpt lat="42.903939" lon="-0.695021">
        <ele>1231.1</ele>
        <time>2012-12-22T12:31:24Z</time>
      </trkpt>
      <trkpt lat="42.904163" lon="-0.694836">
        <ele>1229.2</ele>
        <time>2012-12-22T12:31:31Z</time>
      </trkpt>
      <trkpt lat="42.904166" lon="-0.694727">
        <ele>1227.7</ele>
        <time>2012-12-22T12:31:38Z</time>
      </trkpt>
      <trkpt lat="42.904192" lon="-0.694617">
        <ele>1226.3</ele>
        <time>2012-12-22T12:31:45Z</time>
      </trkpt>
      <trkpt lat="42.904186" lon="-0.694477">
        <ele>1224.4</ele>
        <time>2012-12-22T12:31:52Z</time>
      </trkpt>
      <trkpt lat="42.904167" lon="-0.694356">
        <ele>1222.4</ele>
        <time>2012-12-22T12:31:58Z</time>
      </trkpt>
      <trkpt lat="42.904155" lon="-0.694222">
        <ele>1220.1</ele>
        <time>2012-12-22T12:32:04Z</time>
      </trkpt>
      <trkpt lat="42.904169" lon="-0.694095">
        <ele>1219.1</ele>
        <time>2012-12-22T12:32:10Z</time>
      </trkpt>
      <trkpt lat="42.904213" lon="-0.693987">
        <ele>1218.1</ele>
        <time>2012-12-22T12:32:17Z</time>
      </trkpt>
      <trkpt lat="42.904270" lon="-0.693885">
        <ele>1217.2</ele>
        <time>2012-12-22T12:32:24Z</time>
      </trkpt>
      <trkpt lat="42.904351" lon="-0.693789">
        <ele>1214.8</ele>
        <time>2012-12-22T12:32:35Z</time>
      </trkpt>
      <trkpt lat="42.904424" lon="-0.693665">
        <ele>1212.8</ele>
        <time>2012-12-22T12:32:41Z</time>
      </trkpt>
      <trkpt lat="42.904485" lon="-0.693548">
        <ele>1211.9</ele>
        <time>2012-12-22T12:32:46Z</time>
      </trkpt>
      <trkpt lat="42.904544" lon="-0.693463">
        <ele>1211.4</ele>
        <time>2012-12-22T12:32:49Z</time>
      </trkpt>
      <trkpt lat="42.904553" lon="-0.693380">
        <ele>1209.5</ele>
        <time>2012-12-22T12:33:00Z</time>
      </trkpt>
      <trkpt lat="42.904539" lon="-0.693243">
        <ele>1207.6</ele>
        <time>2012-12-22T12:33:13Z</time>
      </trkpt>
      <trkpt lat="42.904551" lon="-0.693130">
        <ele>1206.1</ele>
        <time>2012-12-22T12:33:21Z</time>
      </trkpt>
      <trkpt lat="42.904593" lon="-0.693033">
        <ele>1205.2</ele>
        <time>2012-12-22T12:33:29Z</time>
      </trkpt>
      <trkpt lat="42.904662" lon="-0.692922">
        <ele>1203.7</ele>
        <time>2012-12-22T12:33:37Z</time>
      </trkpt>
      <trkpt lat="42.904830" lon="-0.692803">
        <ele>1201.8</ele>
        <time>2012-12-22T12:33:49Z</time>
      </trkpt>
      <trkpt lat="42.904881" lon="-0.692671">
        <ele>1200.3</ele>
        <time>2012-12-22T12:34:04Z</time>
      </trkpt>
      <trkpt lat="42.904923" lon="-0.692559">
        <ele>1198.4</ele>
        <time>2012-12-22T12:34:12Z</time>
      </trkpt>
      <trkpt lat="42.904976" lon="-0.692435">
        <ele>1196.5</ele>
        <time>2012-12-22T12:34:26Z</time>
      </trkpt>
      <trkpt lat="42.905068" lon="-0.692212">
        <ele>1194.6</ele>
        <time>2012-12-22T12:34:41Z</time>
      </trkpt>
      <trkpt lat="42.905118" lon="-0.691972">
        <ele>1193.1</ele>
        <time>2012-12-22T12:34:51Z</time>
      </trkpt>
      <trkpt lat="42.905184" lon="-0.691811">
        <ele>1192.2</ele>
        <time>2012-12-22T12:35:04Z</time>
      </trkpt>
      <trkpt lat="42.905332" lon="-0.691629">
        <ele>1190.7</ele>
        <time>2012-12-22T12:35:18Z</time>
      </trkpt>
      <trkpt lat="42.905485" lon="-0.691457">
        <ele>1189.3</ele>
        <time>2012-12-22T12:35:44Z</time>
      </trkpt>
      <trkpt lat="42.905550" lon="-0.691345">
        <ele>1188.3</ele>
        <time>2012-12-22T12:37:33Z</time>
      </trkpt>
      <trkpt lat="42.905581" lon="-0.691304">
        <ele>1186.4</ele>
        <time>2012-12-22T12:39:26Z</time>
      </trkpt>
      <trkpt lat="42.905591" lon="-0.691253">
        <ele>1213.5</ele>
        <time>2012-12-22T12:39:55Z</time>
      </trkpt>
      <trkpt lat="42.905620" lon="-0.691063">
        <ele>1190.2</ele>
        <time>2012-12-22T12:40:06Z</time>
      </trkpt>
      <trkpt lat="42.905591" lon="-0.690920">
        <ele>1190.7</ele>
        <time>2012-12-22T12:40:16Z</time>
      </trkpt>
    </trkseg>
  </trk>
</gpx>

